<?xml version="1.0" encoding="UTF-8" standalone="no" ?>
<gpx xmlns="http://www.topografix.com/GPX/1/1" xmlns:xsi="http://www.w3.org/2001/XMLSchema-instance" xsi:schemaLocation="http://www.topografix.com/GPX/1/1 http://www.topografix.com/GPX/1/1/gpx.xsd" version="1.1" creator="VisuGPX - https://www.visugpx.com">
  <metadata>
    <name>VTT Foret Evreux</name>
    <desc><![CDATA[Circuit de 33 KM principalement en Foret ou chemins de terre, quelques passage Technique, difficile si terrains boueux.]]></desc>
  </metadata>
  <trk>
    <name><![CDATA[ACTIVE LOG: 16 OCT 2011 13:35]]></name>
    <trkseg>
      <trkpt lat="49.00247" lon="1.08909">
        <ele>106.84</ele>
        <time>2011-10-16T11:35:51Z</time>
      </trkpt>
      <trkpt lat="49.00247" lon="1.08909">
        <ele>107.32</ele>
        <time>2011-10-16T11:35:58Z</time>
      </trkpt>
      <trkpt lat="49.00247" lon="1.08909">
        <ele>110.69</ele>
        <time>2011-10-16T11:36:04Z</time>
      </trkpt>
      <trkpt lat="49.00247" lon="1.0891">
        <ele>107.32</ele>
        <time>2011-10-16T11:36:07Z</time>
      </trkpt>
      <trkpt lat="49.00248" lon="1.08914">
        <ele>109.25</ele>
        <time>2011-10-16T11:36:25Z</time>
      </trkpt>
      <trkpt lat="49.00248" lon="1.08914">
        <ele>106.36</ele>
        <time>2011-10-16T11:36:30Z</time>
      </trkpt>
      <trkpt lat="49.00248" lon="1.08914">
        <ele>106.36</ele>
        <time>2011-10-16T11:36:36Z</time>
      </trkpt>
      <trkpt lat="49.00248" lon="1.08914">
        <ele>106.36</ele>
        <time>2011-10-16T11:36:43Z</time>
      </trkpt>
      <trkpt lat="49.00241" lon="1.08941">
        <ele>106.36</ele>
        <time>2011-10-16T11:36:53Z</time>
      </trkpt>
      <trkpt lat="49.00234" lon="1.08948">
        <ele>106.36</ele>
        <time>2011-10-16T11:36:58Z</time>
      </trkpt>
      <trkpt lat="49.00218" lon="1.08947">
        <ele>107.32</ele>
        <time>2011-10-16T11:37:07Z</time>
      </trkpt>
      <trkpt lat="49.00211" lon="1.0895">
        <ele>107.32</ele>
        <time>2011-10-16T11:37:11Z</time>
      </trkpt>
      <trkpt lat="49.00206" lon="1.08981">
        <ele>107.32</ele>
        <time>2011-10-16T11:37:18Z</time>
      </trkpt>
      <trkpt lat="49.00244" lon="1.09071">
        <ele>106.36</ele>
        <time>2011-10-16T11:37:32Z</time>
      </trkpt>
      <trkpt lat="49.00255" lon="1.09089">
        <ele>106.36</ele>
        <time>2011-10-16T11:37:36Z</time>
      </trkpt>
      <trkpt lat="49.00252" lon="1.09111">
        <ele>105.88</ele>
        <time>2011-10-16T11:37:40Z</time>
      </trkpt>
      <trkpt lat="49.00236" lon="1.09132">
        <ele>106.84</ele>
        <time>2011-10-16T11:37:45Z</time>
      </trkpt>
      <trkpt lat="49.00172" lon="1.09152">
        <ele>107.32</ele>
        <time>2011-10-16T11:38:02Z</time>
      </trkpt>
      <trkpt lat="49.0014" lon="1.09195">
        <ele>110.69</ele>
        <time>2011-10-16T11:38:14Z</time>
      </trkpt>
      <trkpt lat="49.00133" lon="1.09219">
        <ele>109.25</ele>
        <time>2011-10-16T11:38:19Z</time>
      </trkpt>
      <trkpt lat="49.00134" lon="1.09239">
        <ele>107.32</ele>
        <time>2011-10-16T11:38:22Z</time>
      </trkpt>
      <trkpt lat="49.00151" lon="1.09302">
        <ele>109.25</ele>
        <time>2011-10-16T11:38:33Z</time>
      </trkpt>
      <trkpt lat="49.00156" lon="1.09346">
        <ele>106.84</ele>
        <time>2011-10-16T11:38:43Z</time>
      </trkpt>
      <trkpt lat="49.00156" lon="1.09374">
        <ele>103.48</ele>
        <time>2011-10-16T11:38:50Z</time>
      </trkpt>
      <trkpt lat="49.00156" lon="1.09384">
        <ele>102.04</ele>
        <time>2011-10-16T11:38:52Z</time>
      </trkpt>
      <trkpt lat="49.00156" lon="1.09393">
        <ele>101.08</ele>
        <time>2011-10-16T11:38:54Z</time>
      </trkpt>
      <trkpt lat="49.00157" lon="1.09407">
        <ele>99.63</ele>
        <time>2011-10-16T11:38:57Z</time>
      </trkpt>
      <trkpt lat="49.0016" lon="1.0943">
        <ele>96.75</ele>
        <time>2011-10-16T11:39:02Z</time>
      </trkpt>
      <trkpt lat="49.00163" lon="1.09452">
        <ele>92.9</ele>
        <time>2011-10-16T11:39:08Z</time>
      </trkpt>
      <trkpt lat="49.00165" lon="1.09481">
        <ele>90.02</ele>
        <time>2011-10-16T11:39:16Z</time>
      </trkpt>
      <trkpt lat="49.00166" lon="1.09486">
        <ele>89.54</ele>
        <time>2011-10-16T11:39:17Z</time>
      </trkpt>
      <trkpt lat="49.00166" lon="1.09495">
        <ele>88.58</ele>
        <time>2011-10-16T11:39:19Z</time>
      </trkpt>
      <trkpt lat="49.00168" lon="1.09513">
        <ele>85.69</ele>
        <time>2011-10-16T11:39:23Z</time>
      </trkpt>
      <trkpt lat="49.00168" lon="1.09518">
        <ele>85.69</ele>
        <time>2011-10-16T11:39:24Z</time>
      </trkpt>
      <trkpt lat="49.00167" lon="1.09536">
        <ele>82.81</ele>
        <time>2011-10-16T11:39:28Z</time>
      </trkpt>
      <trkpt lat="49.00165" lon="1.09558">
        <ele>79.93</ele>
        <time>2011-10-16T11:39:32Z</time>
      </trkpt>
      <trkpt lat="49.00165" lon="1.09571">
        <ele>78</ele>
        <time>2011-10-16T11:39:35Z</time>
      </trkpt>
      <trkpt lat="49.00166" lon="1.09583">
        <ele>75.6</ele>
        <time>2011-10-16T11:39:38Z</time>
      </trkpt>
      <trkpt lat="49.00164" lon="1.096">
        <ele>72.72</ele>
        <time>2011-10-16T11:39:42Z</time>
      </trkpt>
      <trkpt lat="49.00163" lon="1.09605">
        <ele>72.72</ele>
        <time>2011-10-16T11:39:43Z</time>
      </trkpt>
      <trkpt lat="49.00162" lon="1.09621">
        <ele>71.27</ele>
        <time>2011-10-16T11:39:46Z</time>
      </trkpt>
      <trkpt lat="49.00161" lon="1.09633">
        <ele>68.87</ele>
        <time>2011-10-16T11:39:49Z</time>
      </trkpt>
      <trkpt lat="49.0016" lon="1.09637">
        <ele>68.39</ele>
        <time>2011-10-16T11:39:50Z</time>
      </trkpt>
      <trkpt lat="49.00163" lon="1.09662">
        <ele>64.55</ele>
        <time>2011-10-16T11:39:55Z</time>
      </trkpt>
      <trkpt lat="49.00164" lon="1.09668">
        <ele>64.55</ele>
        <time>2011-10-16T11:39:56Z</time>
      </trkpt>
      <trkpt lat="49.00165" lon="1.09674">
        <ele>64.55</ele>
        <time>2011-10-16T11:39:57Z</time>
      </trkpt>
      <trkpt lat="49.00177" lon="1.09739">
        <ele>60.7</ele>
        <time>2011-10-16T11:40:09Z</time>
      </trkpt>
      <trkpt lat="49.00222" lon="1.09813">
        <ele>59.74</ele>
        <time>2011-10-16T11:40:23Z</time>
      </trkpt>
      <trkpt lat="49.00244" lon="1.09848">
        <ele>60.22</ele>
        <time>2011-10-16T11:40:29Z</time>
      </trkpt>
      <trkpt lat="49.00233" lon="1.099">
        <ele>59.26</ele>
        <time>2011-10-16T11:40:36Z</time>
      </trkpt>
      <trkpt lat="49.00163" lon="1.09963">
        <ele>58.3</ele>
        <time>2011-10-16T11:40:49Z</time>
      </trkpt>
      <trkpt lat="49.00084" lon="1.10037">
        <ele>59.74</ele>
        <time>2011-10-16T11:41:04Z</time>
      </trkpt>
      <trkpt lat="49.00002" lon="1.10073">
        <ele>60.7</ele>
        <time>2011-10-16T11:41:18Z</time>
      </trkpt>
      <trkpt lat="48.99958" lon="1.10105">
        <ele>61.18</ele>
        <time>2011-10-16T11:41:27Z</time>
      </trkpt>
      <trkpt lat="48.99942" lon="1.10105">
        <ele>59.26</ele>
        <time>2011-10-16T11:41:30Z</time>
      </trkpt>
      <trkpt lat="48.99938" lon="1.10098">
        <ele>59.26</ele>
        <time>2011-10-16T11:41:31Z</time>
      </trkpt>
      <trkpt lat="48.99935" lon="1.10079">
        <ele>59.74</ele>
        <time>2011-10-16T11:41:33Z</time>
      </trkpt>
      <trkpt lat="48.99931" lon="1.1006">
        <ele>58.3</ele>
        <time>2011-10-16T11:41:35Z</time>
      </trkpt>
      <trkpt lat="48.99878" lon="1.09904">
        <ele>58.3</ele>
        <time>2011-10-16T11:41:53Z</time>
      </trkpt>
      <trkpt lat="48.99834" lon="1.09779">
        <ele>59.26</ele>
        <time>2011-10-16T11:42:08Z</time>
      </trkpt>
      <trkpt lat="48.99811" lon="1.09565">
        <ele>59.74</ele>
        <time>2011-10-16T11:42:31Z</time>
      </trkpt>
      <trkpt lat="48.99771" lon="1.09441">
        <ele>59.74</ele>
        <time>2011-10-16T11:42:46Z</time>
      </trkpt>
      <trkpt lat="48.99726" lon="1.09292">
        <ele>60.22</ele>
        <time>2011-10-16T11:43:04Z</time>
      </trkpt>
      <trkpt lat="48.99692" lon="1.09159">
        <ele>60.7</ele>
        <time>2011-10-16T11:43:20Z</time>
      </trkpt>
      <trkpt lat="48.99659" lon="1.09016">
        <ele>60.7</ele>
        <time>2011-10-16T11:43:37Z</time>
      </trkpt>
      <trkpt lat="48.99658" lon="1.09007">
        <ele>64.07</ele>
        <time>2011-10-16T11:43:38Z</time>
      </trkpt>
      <trkpt lat="48.99656" lon="1.08998">
        <ele>59.74</ele>
        <time>2011-10-16T11:43:39Z</time>
      </trkpt>
      <trkpt lat="48.99635" lon="1.08932">
        <ele>67.91</ele>
        <time>2011-10-16T11:43:47Z</time>
      </trkpt>
      <trkpt lat="48.99632" lon="1.08924">
        <ele>61.66</ele>
        <time>2011-10-16T11:43:48Z</time>
      </trkpt>
      <trkpt lat="48.99629" lon="1.08916">
        <ele>58.3</ele>
        <time>2011-10-16T11:43:49Z</time>
      </trkpt>
      <trkpt lat="48.99626" lon="1.08907">
        <ele>65.51</ele>
        <time>2011-10-16T11:43:50Z</time>
      </trkpt>
      <trkpt lat="48.99623" lon="1.08899">
        <ele>56.37</ele>
        <time>2011-10-16T11:43:51Z</time>
      </trkpt>
      <trkpt lat="48.9962" lon="1.08891">
        <ele>65.03</ele>
        <time>2011-10-16T11:43:52Z</time>
      </trkpt>
      <trkpt lat="48.99618" lon="1.08882">
        <ele>59.74</ele>
        <time>2011-10-16T11:43:53Z</time>
      </trkpt>
      <trkpt lat="48.99602" lon="1.08833">
        <ele>59.74</ele>
        <time>2011-10-16T11:43:59Z</time>
      </trkpt>
      <trkpt lat="48.99593" lon="1.08809">
        <ele>63.1</ele>
        <time>2011-10-16T11:44:02Z</time>
      </trkpt>
      <trkpt lat="48.9959" lon="1.088">
        <ele>63.1</ele>
        <time>2011-10-16T11:44:03Z</time>
      </trkpt>
      <trkpt lat="48.99588" lon="1.08792">
        <ele>62.62</ele>
        <time>2011-10-16T11:44:04Z</time>
      </trkpt>
      <trkpt lat="48.99576" lon="1.08747">
        <ele>58.3</ele>
        <time>2011-10-16T11:44:09Z</time>
      </trkpt>
      <trkpt lat="48.99574" lon="1.08739">
        <ele>62.14</ele>
        <time>2011-10-16T11:44:10Z</time>
      </trkpt>
      <trkpt lat="48.99569" lon="1.08721">
        <ele>57.34</ele>
        <time>2011-10-16T11:44:12Z</time>
      </trkpt>
      <trkpt lat="48.99567" lon="1.08712">
        <ele>61.66</ele>
        <time>2011-10-16T11:44:13Z</time>
      </trkpt>
      <trkpt lat="48.99562" lon="1.08695">
        <ele>64.55</ele>
        <time>2011-10-16T11:44:15Z</time>
      </trkpt>
      <trkpt lat="48.9956" lon="1.08686">
        <ele>60.22</ele>
        <time>2011-10-16T11:44:16Z</time>
      </trkpt>
      <trkpt lat="48.99552" lon="1.08661">
        <ele>64.07</ele>
        <time>2011-10-16T11:44:19Z</time>
      </trkpt>
      <trkpt lat="48.9955" lon="1.08652">
        <ele>60.7</ele>
        <time>2011-10-16T11:44:20Z</time>
      </trkpt>
      <trkpt lat="48.99537" lon="1.08591">
        <ele>62.62</ele>
        <time>2011-10-16T11:44:27Z</time>
      </trkpt>
      <trkpt lat="48.99526" lon="1.08518">
        <ele>60.7</ele>
        <time>2011-10-16T11:44:35Z</time>
      </trkpt>
      <trkpt lat="48.99522" lon="1.08491">
        <ele>62.14</ele>
        <time>2011-10-16T11:44:38Z</time>
      </trkpt>
      <trkpt lat="48.99515" lon="1.08446">
        <ele>58.78</ele>
        <time>2011-10-16T11:44:43Z</time>
      </trkpt>
      <trkpt lat="48.99514" lon="1.08437">
        <ele>61.66</ele>
        <time>2011-10-16T11:44:44Z</time>
      </trkpt>
      <trkpt lat="48.99513" lon="1.08429">
        <ele>57.82</ele>
        <time>2011-10-16T11:44:45Z</time>
      </trkpt>
      <trkpt lat="48.99511" lon="1.08411">
        <ele>61.66</ele>
        <time>2011-10-16T11:44:47Z</time>
      </trkpt>
      <trkpt lat="48.99506" lon="1.08376">
        <ele>65.03</ele>
        <time>2011-10-16T11:44:51Z</time>
      </trkpt>
      <trkpt lat="48.99503" lon="1.08358">
        <ele>61.66</ele>
        <time>2011-10-16T11:44:53Z</time>
      </trkpt>
      <trkpt lat="48.99501" lon="1.08349">
        <ele>66.95</ele>
        <time>2011-10-16T11:44:54Z</time>
      </trkpt>
      <trkpt lat="48.995" lon="1.0834">
        <ele>61.66</ele>
        <time>2011-10-16T11:44:55Z</time>
      </trkpt>
      <trkpt lat="48.99488" lon="1.08286">
        <ele>60.7</ele>
        <time>2011-10-16T11:45:01Z</time>
      </trkpt>
      <trkpt lat="48.99486" lon="1.08277">
        <ele>64.55</ele>
        <time>2011-10-16T11:45:02Z</time>
      </trkpt>
      <trkpt lat="48.99484" lon="1.08268">
        <ele>62.14</ele>
        <time>2011-10-16T11:45:03Z</time>
      </trkpt>
      <trkpt lat="48.9948" lon="1.0825">
        <ele>65.03</ele>
        <time>2011-10-16T11:45:05Z</time>
      </trkpt>
      <trkpt lat="48.99477" lon="1.08241">
        <ele>65.03</ele>
        <time>2011-10-16T11:45:06Z</time>
      </trkpt>
      <trkpt lat="48.99466" lon="1.08187">
        <ele>59.74</ele>
        <time>2011-10-16T11:45:12Z</time>
      </trkpt>
      <trkpt lat="48.99464" lon="1.08178">
        <ele>61.18</ele>
        <time>2011-10-16T11:45:13Z</time>
      </trkpt>
      <trkpt lat="48.99457" lon="1.08132">
        <ele>65.03</ele>
        <time>2011-10-16T11:45:18Z</time>
      </trkpt>
      <trkpt lat="48.9945" lon="1.08068">
        <ele>61.18</ele>
        <time>2011-10-16T11:45:25Z</time>
      </trkpt>
      <trkpt lat="48.99449" lon="1.08023">
        <ele>64.55</ele>
        <time>2011-10-16T11:45:30Z</time>
      </trkpt>
      <trkpt lat="48.99449" lon="1.08014">
        <ele>60.22</ele>
        <time>2011-10-16T11:45:31Z</time>
      </trkpt>
      <trkpt lat="48.99449" lon="1.08005">
        <ele>64.07</ele>
        <time>2011-10-16T11:45:32Z</time>
      </trkpt>
      <trkpt lat="48.99449" lon="1.07996">
        <ele>59.74</ele>
        <time>2011-10-16T11:45:33Z</time>
      </trkpt>
      <trkpt lat="48.99449" lon="1.07969">
        <ele>65.51</ele>
        <time>2011-10-16T11:45:36Z</time>
      </trkpt>
      <trkpt lat="48.99449" lon="1.07923">
        <ele>65.51</ele>
        <time>2011-10-16T11:45:41Z</time>
      </trkpt>
      <trkpt lat="48.99449" lon="1.07905">
        <ele>61.66</ele>
        <time>2011-10-16T11:45:43Z</time>
      </trkpt>
      <trkpt lat="48.99449" lon="1.07895">
        <ele>65.99</ele>
        <time>2011-10-16T11:45:44Z</time>
      </trkpt>
      <trkpt lat="48.9945" lon="1.07886">
        <ele>59.74</ele>
        <time>2011-10-16T11:45:45Z</time>
      </trkpt>
      <trkpt lat="48.9945" lon="1.07877">
        <ele>65.99</ele>
        <time>2011-10-16T11:45:46Z</time>
      </trkpt>
      <trkpt lat="48.9945" lon="1.07867">
        <ele>62.14</ele>
        <time>2011-10-16T11:45:47Z</time>
      </trkpt>
      <trkpt lat="48.99449" lon="1.07759">
        <ele>60.7</ele>
        <time>2011-10-16T11:45:59Z</time>
      </trkpt>
      <trkpt lat="48.99448" lon="1.07706">
        <ele>61.18</ele>
        <time>2011-10-16T11:46:05Z</time>
      </trkpt>
      <trkpt lat="48.99449" lon="1.07676">
        <ele>64.07</ele>
        <time>2011-10-16T11:46:08Z</time>
      </trkpt>
      <trkpt lat="48.99449" lon="1.07666">
        <ele>60.7</ele>
        <time>2011-10-16T11:46:09Z</time>
      </trkpt>
      <trkpt lat="48.99449" lon="1.07607">
        <ele>65.99</ele>
        <time>2011-10-16T11:46:15Z</time>
      </trkpt>
      <trkpt lat="48.99449" lon="1.07577">
        <ele>62.62</ele>
        <time>2011-10-16T11:46:18Z</time>
      </trkpt>
      <trkpt lat="48.99449" lon="1.07566">
        <ele>66.47</ele>
        <time>2011-10-16T11:46:19Z</time>
      </trkpt>
      <trkpt lat="48.99449" lon="1.07556">
        <ele>62.14</ele>
        <time>2011-10-16T11:46:20Z</time>
      </trkpt>
      <trkpt lat="48.99448" lon="1.0737">
        <ele>63.1</ele>
        <time>2011-10-16T11:46:39Z</time>
      </trkpt>
      <trkpt lat="48.99448" lon="1.07341">
        <ele>66.47</ele>
        <time>2011-10-16T11:46:42Z</time>
      </trkpt>
      <trkpt lat="48.99449" lon="1.07332">
        <ele>62.14</ele>
        <time>2011-10-16T11:46:43Z</time>
      </trkpt>
      <trkpt lat="48.99449" lon="1.07312">
        <ele>65.51</ele>
        <time>2011-10-16T11:46:45Z</time>
      </trkpt>
      <trkpt lat="48.99448" lon="1.07273">
        <ele>63.1</ele>
        <time>2011-10-16T11:46:49Z</time>
      </trkpt>
      <trkpt lat="48.99449" lon="1.07235">
        <ele>64.55</ele>
        <time>2011-10-16T11:46:53Z</time>
      </trkpt>
      <trkpt lat="48.99448" lon="1.0705">
        <ele>64.55</ele>
        <time>2011-10-16T11:47:12Z</time>
      </trkpt>
      <trkpt lat="48.99448" lon="1.06918">
        <ele>64.55</ele>
        <time>2011-10-16T11:47:27Z</time>
      </trkpt>
      <trkpt lat="48.99447" lon="1.06851">
        <ele>62.62</ele>
        <time>2011-10-16T11:47:35Z</time>
      </trkpt>
      <trkpt lat="48.99447" lon="1.06843">
        <ele>64.07</ele>
        <time>2011-10-16T11:47:36Z</time>
      </trkpt>
      <trkpt lat="48.99447" lon="1.06827">
        <ele>64.07</ele>
        <time>2011-10-16T11:47:38Z</time>
      </trkpt>
      <trkpt lat="48.99447" lon="1.06803">
        <ele>66.95</ele>
        <time>2011-10-16T11:47:41Z</time>
      </trkpt>
      <trkpt lat="48.99447" lon="1.06737">
        <ele>63.1</ele>
        <time>2011-10-16T11:47:49Z</time>
      </trkpt>
      <trkpt lat="48.99447" lon="1.06729">
        <ele>67.43</ele>
        <time>2011-10-16T11:47:50Z</time>
      </trkpt>
      <trkpt lat="48.99447" lon="1.06721">
        <ele>65.99</ele>
        <time>2011-10-16T11:47:51Z</time>
      </trkpt>
      <trkpt lat="48.99448" lon="1.06681">
        <ele>67.91</ele>
        <time>2011-10-16T11:47:56Z</time>
      </trkpt>
      <trkpt lat="48.99456" lon="1.06652">
        <ele>65.51</ele>
        <time>2011-10-16T11:48:00Z</time>
      </trkpt>
      <trkpt lat="48.99475" lon="1.06614">
        <ele>64.55</ele>
        <time>2011-10-16T11:48:06Z</time>
      </trkpt>
      <trkpt lat="48.99492" lon="1.06562">
        <ele>65.03</ele>
        <time>2011-10-16T11:48:14Z</time>
      </trkpt>
      <trkpt lat="48.99481" lon="1.06507">
        <ele>66.95</ele>
        <time>2011-10-16T11:48:22Z</time>
      </trkpt>
      <trkpt lat="48.99478" lon="1.06484">
        <ele>66.47</ele>
        <time>2011-10-16T11:48:25Z</time>
      </trkpt>
      <trkpt lat="48.99476" lon="1.0647">
        <ele>61.18</ele>
        <time>2011-10-16T11:48:27Z</time>
      </trkpt>
      <trkpt lat="48.99475" lon="1.06463">
        <ele>63.1</ele>
        <time>2011-10-16T11:48:28Z</time>
      </trkpt>
      <trkpt lat="48.99472" lon="1.0645">
        <ele>65.99</ele>
        <time>2011-10-16T11:48:30Z</time>
      </trkpt>
      <trkpt lat="48.99481" lon="1.06407">
        <ele>66.47</ele>
        <time>2011-10-16T11:48:37Z</time>
      </trkpt>
      <trkpt lat="48.99509" lon="1.06391">
        <ele>63.1</ele>
        <time>2011-10-16T11:48:43Z</time>
      </trkpt>
      <trkpt lat="48.99514" lon="1.06388">
        <ele>64.07</ele>
        <time>2011-10-16T11:48:44Z</time>
      </trkpt>
      <trkpt lat="48.99523" lon="1.06383">
        <ele>66.95</ele>
        <time>2011-10-16T11:48:46Z</time>
      </trkpt>
      <trkpt lat="48.99527" lon="1.0638">
        <ele>66.47</ele>
        <time>2011-10-16T11:48:47Z</time>
      </trkpt>
      <trkpt lat="48.99535" lon="1.0634">
        <ele>65.99</ele>
        <time>2011-10-16T11:48:52Z</time>
      </trkpt>
      <trkpt lat="48.99542" lon="1.06309">
        <ele>65.99</ele>
        <time>2011-10-16T11:48:56Z</time>
      </trkpt>
      <trkpt lat="48.99566" lon="1.06284">
        <ele>65.51</ele>
        <time>2011-10-16T11:49:01Z</time>
      </trkpt>
      <trkpt lat="48.99585" lon="1.06271">
        <ele>63.58</ele>
        <time>2011-10-16T11:49:05Z</time>
      </trkpt>
      <trkpt lat="48.99648" lon="1.06269">
        <ele>63.58</ele>
        <time>2011-10-16T11:49:17Z</time>
      </trkpt>
      <trkpt lat="48.99663" lon="1.06266">
        <ele>65.99</ele>
        <time>2011-10-16T11:49:20Z</time>
      </trkpt>
      <trkpt lat="48.99681" lon="1.06244">
        <ele>64.55</ele>
        <time>2011-10-16T11:49:25Z</time>
      </trkpt>
      <trkpt lat="48.9969" lon="1.06195">
        <ele>67.43</ele>
        <time>2011-10-16T11:49:31Z</time>
      </trkpt>
      <trkpt lat="48.99694" lon="1.06171">
        <ele>65.51</ele>
        <time>2011-10-16T11:49:34Z</time>
      </trkpt>
      <trkpt lat="48.99695" lon="1.06136">
        <ele>67.91</ele>
        <time>2011-10-16T11:49:38Z</time>
      </trkpt>
      <trkpt lat="48.99691" lon="1.0611">
        <ele>65.99</ele>
        <time>2011-10-16T11:49:41Z</time>
      </trkpt>
      <trkpt lat="48.99689" lon="1.06101">
        <ele>65.99</ele>
        <time>2011-10-16T11:49:42Z</time>
      </trkpt>
      <trkpt lat="48.99682" lon="1.06087">
        <ele>63.58</ele>
        <time>2011-10-16T11:49:44Z</time>
      </trkpt>
      <trkpt lat="48.99675" lon="1.06073">
        <ele>67.43</ele>
        <time>2011-10-16T11:49:46Z</time>
      </trkpt>
      <trkpt lat="48.99661" lon="1.06046">
        <ele>66.95</ele>
        <time>2011-10-16T11:49:50Z</time>
      </trkpt>
      <trkpt lat="48.99643" lon="1.06024">
        <ele>66.95</ele>
        <time>2011-10-16T11:49:54Z</time>
      </trkpt>
      <trkpt lat="48.99611" lon="1.06004">
        <ele>67.43</ele>
        <time>2011-10-16T11:50:00Z</time>
      </trkpt>
      <trkpt lat="48.99565" lon="1.05918">
        <ele>66.95</ele>
        <time>2011-10-16T11:50:12Z</time>
      </trkpt>
      <trkpt lat="48.99558" lon="1.05904">
        <ele>65.99</ele>
        <time>2011-10-16T11:50:14Z</time>
      </trkpt>
      <trkpt lat="48.99526" lon="1.05846">
        <ele>68.39</ele>
        <time>2011-10-16T11:50:22Z</time>
      </trkpt>
      <trkpt lat="48.99511" lon="1.0583">
        <ele>66.47</ele>
        <time>2011-10-16T11:50:25Z</time>
      </trkpt>
      <trkpt lat="48.99489" lon="1.05813">
        <ele>66.47</ele>
        <time>2011-10-16T11:50:29Z</time>
      </trkpt>
      <trkpt lat="48.99468" lon="1.05772">
        <ele>66.95</ele>
        <time>2011-10-16T11:50:35Z</time>
      </trkpt>
      <trkpt lat="48.99461" lon="1.05717">
        <ele>67.43</ele>
        <time>2011-10-16T11:50:41Z</time>
      </trkpt>
      <trkpt lat="48.99452" lon="1.05675">
        <ele>68.39</ele>
        <time>2011-10-16T11:50:46Z</time>
      </trkpt>
      <trkpt lat="48.99448" lon="1.05625">
        <ele>68.39</ele>
        <time>2011-10-16T11:50:52Z</time>
      </trkpt>
      <trkpt lat="48.99449" lon="1.05592">
        <ele>68.87</ele>
        <time>2011-10-16T11:50:56Z</time>
      </trkpt>
      <trkpt lat="48.99454" lon="1.05567">
        <ele>69.83</ele>
        <time>2011-10-16T11:50:59Z</time>
      </trkpt>
      <trkpt lat="48.99462" lon="1.05553">
        <ele>69.35</ele>
        <time>2011-10-16T11:51:01Z</time>
      </trkpt>
      <trkpt lat="48.99492" lon="1.05518">
        <ele>67.91</ele>
        <time>2011-10-16T11:51:07Z</time>
      </trkpt>
      <trkpt lat="48.99516" lon="1.05503">
        <ele>69.35</ele>
        <time>2011-10-16T11:51:11Z</time>
      </trkpt>
      <trkpt lat="48.99548" lon="1.05538">
        <ele>69.35</ele>
        <time>2011-10-16T11:51:17Z</time>
      </trkpt>
      <trkpt lat="48.9953" lon="1.05594">
        <ele>70.31</ele>
        <time>2011-10-16T11:51:23Z</time>
      </trkpt>
      <trkpt lat="48.99506" lon="1.05607">
        <ele>72.72</ele>
        <time>2011-10-16T11:51:27Z</time>
      </trkpt>
      <trkpt lat="48.99461" lon="1.05622">
        <ele>76.08</ele>
        <time>2011-10-16T11:51:37Z</time>
      </trkpt>
      <trkpt lat="48.99383" lon="1.05632">
        <ele>74.64</ele>
        <time>2011-10-16T11:51:54Z</time>
      </trkpt>
      <trkpt lat="48.99361" lon="1.05635">
        <ele>72.24</ele>
        <time>2011-10-16T11:51:57Z</time>
      </trkpt>
      <trkpt lat="48.99297" lon="1.05629">
        <ele>75.12</ele>
        <time>2011-10-16T11:52:06Z</time>
      </trkpt>
      <trkpt lat="48.99289" lon="1.05624">
        <ele>75.6</ele>
        <time>2011-10-16T11:52:08Z</time>
      </trkpt>
      <trkpt lat="48.99284" lon="1.05619">
        <ele>77.04</ele>
        <time>2011-10-16T11:52:10Z</time>
      </trkpt>
      <trkpt lat="48.9925" lon="1.05609">
        <ele>79.45</ele>
        <time>2011-10-16T11:52:23Z</time>
      </trkpt>
      <trkpt lat="48.99214" lon="1.05603">
        <ele>82.81</ele>
        <time>2011-10-16T11:52:38Z</time>
      </trkpt>
      <trkpt lat="48.99182" lon="1.05604">
        <ele>86.18</ele>
        <time>2011-10-16T11:52:52Z</time>
      </trkpt>
      <trkpt lat="48.99155" lon="1.05618">
        <ele>89.54</ele>
        <time>2011-10-16T11:53:05Z</time>
      </trkpt>
      <trkpt lat="48.99146" lon="1.05647">
        <ele>90.5</ele>
        <time>2011-10-16T11:53:16Z</time>
      </trkpt>
      <trkpt lat="48.99124" lon="1.05655">
        <ele>93.87</ele>
        <time>2011-10-16T11:53:29Z</time>
      </trkpt>
      <trkpt lat="48.99102" lon="1.05634">
        <ele>96.75</ele>
        <time>2011-10-16T11:53:45Z</time>
      </trkpt>
      <trkpt lat="48.99096" lon="1.05615">
        <ele>98.19</ele>
        <time>2011-10-16T11:53:54Z</time>
      </trkpt>
      <trkpt lat="48.99086" lon="1.05598">
        <ele>100.11</ele>
        <time>2011-10-16T11:54:06Z</time>
      </trkpt>
      <trkpt lat="48.99077" lon="1.0559">
        <ele>101.08</ele>
        <time>2011-10-16T11:54:12Z</time>
      </trkpt>
      <trkpt lat="48.9905" lon="1.05572">
        <ele>103</ele>
        <time>2011-10-16T11:54:28Z</time>
      </trkpt>
      <trkpt lat="48.99042" lon="1.05569">
        <ele>103.96</ele>
        <time>2011-10-16T11:54:34Z</time>
      </trkpt>
      <trkpt lat="48.99031" lon="1.05568">
        <ele>103.96</ele>
        <time>2011-10-16T11:54:40Z</time>
      </trkpt>
      <trkpt lat="48.99023" lon="1.05567">
        <ele>105.4</ele>
        <time>2011-10-16T11:54:45Z</time>
      </trkpt>
      <trkpt lat="48.99" lon="1.05569">
        <ele>106.84</ele>
        <time>2011-10-16T11:54:58Z</time>
      </trkpt>
      <trkpt lat="48.98988" lon="1.05571">
        <ele>108.29</ele>
        <time>2011-10-16T11:55:06Z</time>
      </trkpt>
      <trkpt lat="48.98972" lon="1.0558">
        <ele>110.21</ele>
        <time>2011-10-16T11:55:16Z</time>
      </trkpt>
      <trkpt lat="48.98961" lon="1.05583">
        <ele>111.65</ele>
        <time>2011-10-16T11:55:23Z</time>
      </trkpt>
      <trkpt lat="48.98958" lon="1.05584">
        <ele>111.17</ele>
        <time>2011-10-16T11:55:25Z</time>
      </trkpt>
      <trkpt lat="48.98952" lon="1.05589">
        <ele>113.09</ele>
        <time>2011-10-16T11:55:29Z</time>
      </trkpt>
      <trkpt lat="48.98943" lon="1.05592">
        <ele>113.57</ele>
        <time>2011-10-16T11:55:35Z</time>
      </trkpt>
      <trkpt lat="48.98935" lon="1.05598">
        <ele>115.01</ele>
        <time>2011-10-16T11:55:41Z</time>
      </trkpt>
      <trkpt lat="48.98926" lon="1.05601">
        <ele>115.5</ele>
        <time>2011-10-16T11:55:45Z</time>
      </trkpt>
      <trkpt lat="48.98894" lon="1.05621">
        <ele>117.9</ele>
        <time>2011-10-16T11:56:02Z</time>
      </trkpt>
      <trkpt lat="48.98871" lon="1.05619">
        <ele>118.38</ele>
        <time>2011-10-16T11:56:15Z</time>
      </trkpt>
      <trkpt lat="48.98838" lon="1.05609">
        <ele>120.3</ele>
        <time>2011-10-16T11:56:33Z</time>
      </trkpt>
      <trkpt lat="48.98785" lon="1.05592">
        <ele>123.67</ele>
        <time>2011-10-16T11:56:56Z</time>
      </trkpt>
      <trkpt lat="48.98754" lon="1.05585">
        <ele>124.15</ele>
        <time>2011-10-16T11:57:07Z</time>
      </trkpt>
      <trkpt lat="48.98717" lon="1.05567">
        <ele>125.11</ele>
        <time>2011-10-16T11:57:20Z</time>
      </trkpt>
      <trkpt lat="48.98692" lon="1.05578">
        <ele>126.55</ele>
        <time>2011-10-16T11:57:29Z</time>
      </trkpt>
      <trkpt lat="48.98677" lon="1.05588">
        <ele>127.03</ele>
        <time>2011-10-16T11:57:35Z</time>
      </trkpt>
      <trkpt lat="48.98646" lon="1.05611">
        <ele>127.51</ele>
        <time>2011-10-16T11:57:47Z</time>
      </trkpt>
      <trkpt lat="48.98607" lon="1.05648">
        <ele>128.47</ele>
        <time>2011-10-16T11:58:02Z</time>
      </trkpt>
      <trkpt lat="48.98576" lon="1.05677">
        <ele>129.43</ele>
        <time>2011-10-16T11:58:13Z</time>
      </trkpt>
      <trkpt lat="48.98543" lon="1.057">
        <ele>129.92</ele>
        <time>2011-10-16T11:58:25Z</time>
      </trkpt>
      <trkpt lat="48.9851" lon="1.05723">
        <ele>130.4</ele>
        <time>2011-10-16T11:58:36Z</time>
      </trkpt>
      <trkpt lat="48.98476" lon="1.05738">
        <ele>130.4</ele>
        <time>2011-10-16T11:58:48Z</time>
      </trkpt>
      <trkpt lat="48.98468" lon="1.05728">
        <ele>130.4</ele>
        <time>2011-10-16T11:58:51Z</time>
      </trkpt>
      <trkpt lat="48.98445" lon="1.05665">
        <ele>130.4</ele>
        <time>2011-10-16T11:59:05Z</time>
      </trkpt>
      <trkpt lat="48.9842" lon="1.05592">
        <ele>129.92</ele>
        <time>2011-10-16T11:59:20Z</time>
      </trkpt>
      <trkpt lat="48.98394" lon="1.05517">
        <ele>131.36</ele>
        <time>2011-10-16T11:59:35Z</time>
      </trkpt>
      <trkpt lat="48.98365" lon="1.05436">
        <ele>130.4</ele>
        <time>2011-10-16T11:59:52Z</time>
      </trkpt>
      <trkpt lat="48.98346" lon="1.05381">
        <ele>127.03</ele>
        <time>2011-10-16T12:00:05Z</time>
      </trkpt>
      <trkpt lat="48.9834" lon="1.05363">
        <ele>123.67</ele>
        <time>2011-10-16T12:00:09Z</time>
      </trkpt>
      <trkpt lat="48.98328" lon="1.05334">
        <ele>119.34</ele>
        <time>2011-10-16T12:00:15Z</time>
      </trkpt>
      <trkpt lat="48.98323" lon="1.0532">
        <ele>116.94</ele>
        <time>2011-10-16T12:00:18Z</time>
      </trkpt>
      <trkpt lat="48.9832" lon="1.0531">
        <ele>114.53</ele>
        <time>2011-10-16T12:00:20Z</time>
      </trkpt>
      <trkpt lat="48.98316" lon="1.05299">
        <ele>114.05</ele>
        <time>2011-10-16T12:00:22Z</time>
      </trkpt>
      <trkpt lat="48.98308" lon="1.05281">
        <ele>110.21</ele>
        <time>2011-10-16T12:00:25Z</time>
      </trkpt>
      <trkpt lat="48.98302" lon="1.05263">
        <ele>108.29</ele>
        <time>2011-10-16T12:00:28Z</time>
      </trkpt>
      <trkpt lat="48.98295" lon="1.0524">
        <ele>104.92</ele>
        <time>2011-10-16T12:00:32Z</time>
      </trkpt>
      <trkpt lat="48.98291" lon="1.05229">
        <ele>103</ele>
        <time>2011-10-16T12:00:34Z</time>
      </trkpt>
      <trkpt lat="48.98285" lon="1.0521">
        <ele>99.15</ele>
        <time>2011-10-16T12:00:37Z</time>
      </trkpt>
      <trkpt lat="48.98274" lon="1.05179">
        <ele>95.31</ele>
        <time>2011-10-16T12:00:42Z</time>
      </trkpt>
      <trkpt lat="48.9827" lon="1.05166">
        <ele>92.9</ele>
        <time>2011-10-16T12:00:44Z</time>
      </trkpt>
      <trkpt lat="48.98261" lon="1.05142">
        <ele>88.58</ele>
        <time>2011-10-16T12:00:48Z</time>
      </trkpt>
      <trkpt lat="48.98255" lon="1.05124">
        <ele>87.14</ele>
        <time>2011-10-16T12:00:51Z</time>
      </trkpt>
      <trkpt lat="48.98235" lon="1.05101">
        <ele>86.66</ele>
        <time>2011-10-16T12:00:56Z</time>
      </trkpt>
      <trkpt lat="48.9821" lon="1.05119">
        <ele>87.14</ele>
        <time>2011-10-16T12:01:05Z</time>
      </trkpt>
      <trkpt lat="48.98177" lon="1.05142">
        <ele>87.14</ele>
        <time>2011-10-16T12:01:14Z</time>
      </trkpt>
      <trkpt lat="48.98151" lon="1.05199">
        <ele>88.1</ele>
        <time>2011-10-16T12:01:26Z</time>
      </trkpt>
      <trkpt lat="48.98149" lon="1.05232">
        <ele>88.58</ele>
        <time>2011-10-16T12:01:32Z</time>
      </trkpt>
      <trkpt lat="48.9815" lon="1.05273">
        <ele>88.1</ele>
        <time>2011-10-16T12:01:39Z</time>
      </trkpt>
      <trkpt lat="48.98133" lon="1.0533">
        <ele>88.1</ele>
        <time>2011-10-16T12:01:51Z</time>
      </trkpt>
      <trkpt lat="48.98131" lon="1.05333">
        <ele>88.58</ele>
        <time>2011-10-16T12:01:52Z</time>
      </trkpt>
      <trkpt lat="48.98114" lon="1.05356">
        <ele>88.58</ele>
        <time>2011-10-16T12:02:00Z</time>
      </trkpt>
      <trkpt lat="48.98102" lon="1.05371">
        <ele>88.58</ele>
        <time>2011-10-16T12:02:05Z</time>
      </trkpt>
      <trkpt lat="48.98094" lon="1.05382">
        <ele>90.5</ele>
        <time>2011-10-16T12:02:09Z</time>
      </trkpt>
      <trkpt lat="48.98072" lon="1.05408">
        <ele>90.98</ele>
        <time>2011-10-16T12:02:20Z</time>
      </trkpt>
      <trkpt lat="48.9806" lon="1.05431">
        <ele>91.94</ele>
        <time>2011-10-16T12:02:27Z</time>
      </trkpt>
      <trkpt lat="48.9805" lon="1.05457">
        <ele>92.9</ele>
        <time>2011-10-16T12:02:35Z</time>
      </trkpt>
      <trkpt lat="48.98048" lon="1.05463">
        <ele>93.39</ele>
        <time>2011-10-16T12:02:37Z</time>
      </trkpt>
      <trkpt lat="48.98045" lon="1.05482">
        <ele>93.39</ele>
        <time>2011-10-16T12:02:42Z</time>
      </trkpt>
      <trkpt lat="48.98042" lon="1.0551">
        <ele>94.83</ele>
        <time>2011-10-16T12:02:50Z</time>
      </trkpt>
      <trkpt lat="48.98036" lon="1.05536">
        <ele>94.35</ele>
        <time>2011-10-16T12:03:00Z</time>
      </trkpt>
      <trkpt lat="48.98015" lon="1.05558">
        <ele>96.27</ele>
        <time>2011-10-16T12:03:12Z</time>
      </trkpt>
      <trkpt lat="48.97998" lon="1.05563">
        <ele>97.71</ele>
        <time>2011-10-16T12:03:24Z</time>
      </trkpt>
      <trkpt lat="48.97987" lon="1.05561">
        <ele>99.15</ele>
        <time>2011-10-16T12:03:30Z</time>
      </trkpt>
      <trkpt lat="48.97973" lon="1.05542">
        <ele>100.6</ele>
        <time>2011-10-16T12:03:41Z</time>
      </trkpt>
      <trkpt lat="48.97965" lon="1.05533">
        <ele>101.56</ele>
        <time>2011-10-16T12:03:46Z</time>
      </trkpt>
      <trkpt lat="48.97956" lon="1.05519">
        <ele>103.48</ele>
        <time>2011-10-16T12:04:00Z</time>
      </trkpt>
      <trkpt lat="48.97943" lon="1.05499">
        <ele>105.4</ele>
        <time>2011-10-16T12:04:21Z</time>
      </trkpt>
      <trkpt lat="48.97928" lon="1.05483">
        <ele>106.36</ele>
        <time>2011-10-16T12:04:34Z</time>
      </trkpt>
      <trkpt lat="48.97924" lon="1.05476">
        <ele>105.88</ele>
        <time>2011-10-16T12:04:45Z</time>
      </trkpt>
      <trkpt lat="48.97919" lon="1.05468">
        <ele>107.81</ele>
        <time>2011-10-16T12:04:49Z</time>
      </trkpt>
      <trkpt lat="48.97914" lon="1.05446">
        <ele>109.25</ele>
        <time>2011-10-16T12:05:02Z</time>
      </trkpt>
      <trkpt lat="48.97903" lon="1.05412">
        <ele>111.17</ele>
        <time>2011-10-16T12:05:14Z</time>
      </trkpt>
      <trkpt lat="48.97893" lon="1.05384">
        <ele>112.13</ele>
        <time>2011-10-16T12:05:27Z</time>
      </trkpt>
      <trkpt lat="48.97883" lon="1.05357">
        <ele>113.57</ele>
        <time>2011-10-16T12:05:41Z</time>
      </trkpt>
      <trkpt lat="48.97882" lon="1.05355">
        <ele>114.05</ele>
        <time>2011-10-16T12:05:42Z</time>
      </trkpt>
      <trkpt lat="48.9788" lon="1.05352">
        <ele>113.57</ele>
        <time>2011-10-16T12:05:44Z</time>
      </trkpt>
      <trkpt lat="48.97879" lon="1.05345">
        <ele>113.57</ele>
        <time>2011-10-16T12:05:48Z</time>
      </trkpt>
      <trkpt lat="48.97877" lon="1.0533">
        <ele>114.53</ele>
        <time>2011-10-16T12:06:00Z</time>
      </trkpt>
      <trkpt lat="48.97867" lon="1.05315">
        <ele>114.53</ele>
        <time>2011-10-16T12:06:15Z</time>
      </trkpt>
      <trkpt lat="48.9786" lon="1.05273">
        <ele>115.98</ele>
        <time>2011-10-16T12:06:31Z</time>
      </trkpt>
      <trkpt lat="48.97855" lon="1.05235">
        <ele>117.42</ele>
        <time>2011-10-16T12:06:45Z</time>
      </trkpt>
      <trkpt lat="48.97855" lon="1.05232">
        <ele>117.9</ele>
        <time>2011-10-16T12:06:46Z</time>
      </trkpt>
      <trkpt lat="48.97853" lon="1.05221">
        <ele>118.86</ele>
        <time>2011-10-16T12:06:51Z</time>
      </trkpt>
      <trkpt lat="48.97851" lon="1.05211">
        <ele>119.34</ele>
        <time>2011-10-16T12:06:55Z</time>
      </trkpt>
      <trkpt lat="48.97843" lon="1.05168">
        <ele>120.3</ele>
        <time>2011-10-16T12:07:10Z</time>
      </trkpt>
      <trkpt lat="48.97837" lon="1.05135">
        <ele>121.26</ele>
        <time>2011-10-16T12:07:22Z</time>
      </trkpt>
      <trkpt lat="48.97836" lon="1.05128">
        <ele>121.74</ele>
        <time>2011-10-16T12:07:24Z</time>
      </trkpt>
      <trkpt lat="48.97838" lon="1.05104">
        <ele>124.15</ele>
        <time>2011-10-16T12:07:34Z</time>
      </trkpt>
      <trkpt lat="48.97842" lon="1.05072">
        <ele>126.07</ele>
        <time>2011-10-16T12:07:48Z</time>
      </trkpt>
      <trkpt lat="48.97845" lon="1.05058">
        <ele>126.07</ele>
        <time>2011-10-16T12:07:54Z</time>
      </trkpt>
      <trkpt lat="48.97847" lon="1.05036">
        <ele>126.55</ele>
        <time>2011-10-16T12:08:02Z</time>
      </trkpt>
      <trkpt lat="48.97854" lon="1.05012">
        <ele>127.51</ele>
        <time>2011-10-16T12:08:14Z</time>
      </trkpt>
      <trkpt lat="48.97865" lon="1.04986">
        <ele>128.95</ele>
        <time>2011-10-16T12:08:26Z</time>
      </trkpt>
      <trkpt lat="48.97879" lon="1.04956">
        <ele>129.92</ele>
        <time>2011-10-16T12:08:39Z</time>
      </trkpt>
      <trkpt lat="48.97884" lon="1.0494">
        <ele>129.92</ele>
        <time>2011-10-16T12:08:45Z</time>
      </trkpt>
      <trkpt lat="48.97899" lon="1.04905">
        <ele>130.4</ele>
        <time>2011-10-16T12:08:58Z</time>
      </trkpt>
      <trkpt lat="48.97917" lon="1.04878">
        <ele>130.4</ele>
        <time>2011-10-16T12:09:11Z</time>
      </trkpt>
      <trkpt lat="48.97938" lon="1.04857">
        <ele>129.43</ele>
        <time>2011-10-16T12:09:24Z</time>
      </trkpt>
      <trkpt lat="48.97968" lon="1.0483">
        <ele>129.43</ele>
        <time>2011-10-16T12:09:38Z</time>
      </trkpt>
      <trkpt lat="48.9797" lon="1.04829">
        <ele>129.92</ele>
        <time>2011-10-16T12:09:39Z</time>
      </trkpt>
      <trkpt lat="48.97975" lon="1.04825">
        <ele>129.92</ele>
        <time>2011-10-16T12:09:43Z</time>
      </trkpt>
      <trkpt lat="48.97976" lon="1.04816">
        <ele>130.88</ele>
        <time>2011-10-16T12:09:47Z</time>
      </trkpt>
      <trkpt lat="48.97975" lon="1.04811">
        <ele>131.36</ele>
        <time>2011-10-16T12:09:49Z</time>
      </trkpt>
      <trkpt lat="48.97973" lon="1.04804">
        <ele>131.84</ele>
        <time>2011-10-16T12:09:52Z</time>
      </trkpt>
      <trkpt lat="48.97967" lon="1.04775">
        <ele>131.84</ele>
        <time>2011-10-16T12:10:05Z</time>
      </trkpt>
      <trkpt lat="48.97952" lon="1.04738">
        <ele>131.84</ele>
        <time>2011-10-16T12:10:17Z</time>
      </trkpt>
      <trkpt lat="48.9795" lon="1.04735">
        <ele>132.32</ele>
        <time>2011-10-16T12:10:18Z</time>
      </trkpt>
      <trkpt lat="48.97913" lon="1.04738">
        <ele>132.32</ele>
        <time>2011-10-16T12:10:31Z</time>
      </trkpt>
      <trkpt lat="48.97873" lon="1.04742">
        <ele>133.76</ele>
        <time>2011-10-16T12:10:43Z</time>
      </trkpt>
      <trkpt lat="48.97849" lon="1.0475">
        <ele>133.76</ele>
        <time>2011-10-16T12:10:53Z</time>
      </trkpt>
      <trkpt lat="48.97815" lon="1.0476">
        <ele>134.72</ele>
        <time>2011-10-16T12:11:05Z</time>
      </trkpt>
      <trkpt lat="48.97793" lon="1.04758">
        <ele>134.24</ele>
        <time>2011-10-16T12:11:12Z</time>
      </trkpt>
      <trkpt lat="48.9777" lon="1.04761">
        <ele>135.2</ele>
        <time>2011-10-16T12:11:22Z</time>
      </trkpt>
      <trkpt lat="48.97741" lon="1.04762">
        <ele>135.2</ele>
        <time>2011-10-16T12:11:33Z</time>
      </trkpt>
      <trkpt lat="48.97709" lon="1.04772">
        <ele>134.72</ele>
        <time>2011-10-16T12:11:45Z</time>
      </trkpt>
      <trkpt lat="48.97669" lon="1.04778">
        <ele>136.64</ele>
        <time>2011-10-16T12:11:59Z</time>
      </trkpt>
      <trkpt lat="48.97644" lon="1.04778">
        <ele>136.64</ele>
        <time>2011-10-16T12:12:09Z</time>
      </trkpt>
      <trkpt lat="48.97605" lon="1.04751">
        <ele>136.64</ele>
        <time>2011-10-16T12:12:21Z</time>
      </trkpt>
      <trkpt lat="48.97602" lon="1.04749">
        <ele>136.64</ele>
        <time>2011-10-16T12:12:22Z</time>
      </trkpt>
      <trkpt lat="48.97575" lon="1.04773">
        <ele>137.13</ele>
        <time>2011-10-16T12:12:33Z</time>
      </trkpt>
      <trkpt lat="48.97537" lon="1.04831">
        <ele>135.68</ele>
        <time>2011-10-16T12:12:48Z</time>
      </trkpt>
      <trkpt lat="48.97489" lon="1.04922">
        <ele>136.16</ele>
        <time>2011-10-16T12:13:07Z</time>
      </trkpt>
      <trkpt lat="48.97432" lon="1.05034">
        <ele>136.16</ele>
        <time>2011-10-16T12:13:29Z</time>
      </trkpt>
      <trkpt lat="48.97395" lon="1.0509">
        <ele>137.13</ele>
        <time>2011-10-16T12:13:43Z</time>
      </trkpt>
      <trkpt lat="48.97391" lon="1.05099">
        <ele>137.13</ele>
        <time>2011-10-16T12:13:45Z</time>
      </trkpt>
      <trkpt lat="48.9738" lon="1.05096">
        <ele>137.13</ele>
        <time>2011-10-16T12:13:50Z</time>
      </trkpt>
      <trkpt lat="48.97373" lon="1.05038">
        <ele>137.61</ele>
        <time>2011-10-16T12:14:03Z</time>
      </trkpt>
      <trkpt lat="48.9735" lon="1.0493">
        <ele>138.09</ele>
        <time>2011-10-16T12:14:22Z</time>
      </trkpt>
      <trkpt lat="48.97331" lon="1.04853">
        <ele>137.13</ele>
        <time>2011-10-16T12:14:32Z</time>
      </trkpt>
      <trkpt lat="48.97322" lon="1.04806">
        <ele>137.13</ele>
        <time>2011-10-16T12:14:38Z</time>
      </trkpt>
      <trkpt lat="48.97312" lon="1.04751">
        <ele>136.16</ele>
        <time>2011-10-16T12:14:45Z</time>
      </trkpt>
      <trkpt lat="48.97308" lon="1.04725">
        <ele>135.2</ele>
        <time>2011-10-16T12:14:48Z</time>
      </trkpt>
      <trkpt lat="48.97302" lon="1.04691">
        <ele>135.2</ele>
        <time>2011-10-16T12:14:52Z</time>
      </trkpt>
      <trkpt lat="48.97294" lon="1.0465">
        <ele>135.68</ele>
        <time>2011-10-16T12:14:57Z</time>
      </trkpt>
      <trkpt lat="48.9729" lon="1.04634">
        <ele>135.68</ele>
        <time>2011-10-16T12:14:59Z</time>
      </trkpt>
      <trkpt lat="48.97269" lon="1.04542">
        <ele>135.2</ele>
        <time>2011-10-16T12:15:10Z</time>
      </trkpt>
      <trkpt lat="48.97254" lon="1.04463">
        <ele>135.2</ele>
        <time>2011-10-16T12:15:20Z</time>
      </trkpt>
      <trkpt lat="48.97242" lon="1.04421">
        <ele>135.2</ele>
        <time>2011-10-16T12:15:27Z</time>
      </trkpt>
      <trkpt lat="48.97219" lon="1.04409">
        <ele>135.68</ele>
        <time>2011-10-16T12:15:37Z</time>
      </trkpt>
      <trkpt lat="48.97214" lon="1.04408">
        <ele>136.16</ele>
        <time>2011-10-16T12:15:50Z</time>
      </trkpt>
      <trkpt lat="48.97211" lon="1.04407">
        <ele>134.72</ele>
        <time>2011-10-16T12:16:06Z</time>
      </trkpt>
      <trkpt lat="48.97207" lon="1.04408">
        <ele>135.68</ele>
        <time>2011-10-16T12:16:15Z</time>
      </trkpt>
      <trkpt lat="48.97196" lon="1.04411">
        <ele>135.2</ele>
        <time>2011-10-16T12:16:20Z</time>
      </trkpt>
      <trkpt lat="48.97162" lon="1.04426">
        <ele>135.68</ele>
        <time>2011-10-16T12:16:32Z</time>
      </trkpt>
      <trkpt lat="48.97155" lon="1.04429">
        <ele>135.2</ele>
        <time>2011-10-16T12:16:34Z</time>
      </trkpt>
      <trkpt lat="48.97125" lon="1.04446">
        <ele>133.76</ele>
        <time>2011-10-16T12:16:41Z</time>
      </trkpt>
      <trkpt lat="48.97117" lon="1.04451">
        <ele>135.2</ele>
        <time>2011-10-16T12:16:43Z</time>
      </trkpt>
      <trkpt lat="48.97084" lon="1.04473">
        <ele>134.24</ele>
        <time>2011-10-16T12:16:51Z</time>
      </trkpt>
      <trkpt lat="48.97049" lon="1.04497">
        <ele>134.24</ele>
        <time>2011-10-16T12:16:58Z</time>
      </trkpt>
      <trkpt lat="48.97012" lon="1.04525">
        <ele>133.28</ele>
        <time>2011-10-16T12:17:05Z</time>
      </trkpt>
      <trkpt lat="48.96987" lon="1.04541">
        <ele>133.28</ele>
        <time>2011-10-16T12:17:10Z</time>
      </trkpt>
      <trkpt lat="48.96964" lon="1.04558">
        <ele>132.8</ele>
        <time>2011-10-16T12:17:15Z</time>
      </trkpt>
      <trkpt lat="48.96944" lon="1.04574">
        <ele>133.28</ele>
        <time>2011-10-16T12:17:20Z</time>
      </trkpt>
      <trkpt lat="48.96918" lon="1.04595">
        <ele>133.76</ele>
        <time>2011-10-16T12:17:26Z</time>
      </trkpt>
      <trkpt lat="48.96903" lon="1.04605">
        <ele>133.28</ele>
        <time>2011-10-16T12:17:29Z</time>
      </trkpt>
      <trkpt lat="48.96877" lon="1.04621">
        <ele>133.28</ele>
        <time>2011-10-16T12:17:34Z</time>
      </trkpt>
      <trkpt lat="48.96854" lon="1.04631">
        <ele>132.32</ele>
        <time>2011-10-16T12:17:38Z</time>
      </trkpt>
      <trkpt lat="48.96839" lon="1.04644">
        <ele>131.84</ele>
        <time>2011-10-16T12:17:41Z</time>
      </trkpt>
      <trkpt lat="48.96808" lon="1.04661">
        <ele>132.8</ele>
        <time>2011-10-16T12:17:47Z</time>
      </trkpt>
      <trkpt lat="48.96784" lon="1.04681">
        <ele>132.32</ele>
        <time>2011-10-16T12:17:52Z</time>
      </trkpt>
      <trkpt lat="48.96738" lon="1.04709">
        <ele>132.8</ele>
        <time>2011-10-16T12:18:01Z</time>
      </trkpt>
      <trkpt lat="48.96719" lon="1.04723">
        <ele>132.8</ele>
        <time>2011-10-16T12:18:05Z</time>
      </trkpt>
      <trkpt lat="48.96708" lon="1.04735">
        <ele>132.8</ele>
        <time>2011-10-16T12:18:08Z</time>
      </trkpt>
      <trkpt lat="48.96697" lon="1.04744">
        <ele>132.32</ele>
        <time>2011-10-16T12:18:11Z</time>
      </trkpt>
      <trkpt lat="48.96671" lon="1.04761">
        <ele>132.32</ele>
        <time>2011-10-16T12:18:17Z</time>
      </trkpt>
      <trkpt lat="48.96658" lon="1.04772">
        <ele>132.32</ele>
        <time>2011-10-16T12:18:20Z</time>
      </trkpt>
      <trkpt lat="48.96641" lon="1.04786">
        <ele>131.84</ele>
        <time>2011-10-16T12:18:24Z</time>
      </trkpt>
      <trkpt lat="48.96622" lon="1.04798">
        <ele>130.4</ele>
        <time>2011-10-16T12:18:28Z</time>
      </trkpt>
      <trkpt lat="48.96583" lon="1.04825">
        <ele>130.88</ele>
        <time>2011-10-16T12:18:39Z</time>
      </trkpt>
      <trkpt lat="48.96581" lon="1.04827">
        <ele>131.36</ele>
        <time>2011-10-16T12:18:40Z</time>
      </trkpt>
      <trkpt lat="48.96576" lon="1.04826">
        <ele>131.36</ele>
        <time>2011-10-16T12:18:43Z</time>
      </trkpt>
      <trkpt lat="48.96572" lon="1.04831">
        <ele>130.4</ele>
        <time>2011-10-16T12:18:48Z</time>
      </trkpt>
      <trkpt lat="48.96558" lon="1.04859">
        <ele>130.88</ele>
        <time>2011-10-16T12:18:57Z</time>
      </trkpt>
      <trkpt lat="48.96555" lon="1.04871">
        <ele>131.84</ele>
        <time>2011-10-16T12:19:02Z</time>
      </trkpt>
      <trkpt lat="48.96546" lon="1.04875">
        <ele>131.84</ele>
        <time>2011-10-16T12:19:11Z</time>
      </trkpt>
      <trkpt lat="48.96536" lon="1.04863">
        <ele>131.36</ele>
        <time>2011-10-16T12:19:18Z</time>
      </trkpt>
      <trkpt lat="48.96499" lon="1.04879">
        <ele>132.8</ele>
        <time>2011-10-16T12:19:35Z</time>
      </trkpt>
      <trkpt lat="48.96483" lon="1.04889">
        <ele>132.8</ele>
        <time>2011-10-16T12:19:42Z</time>
      </trkpt>
      <trkpt lat="48.96473" lon="1.04895">
        <ele>132.8</ele>
        <time>2011-10-16T12:19:46Z</time>
      </trkpt>
      <trkpt lat="48.96446" lon="1.04912">
        <ele>133.28</ele>
        <time>2011-10-16T12:19:57Z</time>
      </trkpt>
      <trkpt lat="48.96414" lon="1.04933">
        <ele>133.76</ele>
        <time>2011-10-16T12:20:08Z</time>
      </trkpt>
      <trkpt lat="48.96377" lon="1.04955">
        <ele>133.28</ele>
        <time>2011-10-16T12:20:19Z</time>
      </trkpt>
      <trkpt lat="48.9634" lon="1.04985">
        <ele>133.76</ele>
        <time>2011-10-16T12:20:30Z</time>
      </trkpt>
      <trkpt lat="48.96329" lon="1.05005">
        <ele>132.8</ele>
        <time>2011-10-16T12:20:34Z</time>
      </trkpt>
      <trkpt lat="48.96319" lon="1.05024">
        <ele>131.84</ele>
        <time>2011-10-16T12:20:38Z</time>
      </trkpt>
      <trkpt lat="48.96282" lon="1.05045">
        <ele>131.84</ele>
        <time>2011-10-16T12:20:46Z</time>
      </trkpt>
      <trkpt lat="48.96278" lon="1.05044">
        <ele>132.32</ele>
        <time>2011-10-16T12:20:47Z</time>
      </trkpt>
      <trkpt lat="48.96249" lon="1.0505">
        <ele>134.24</ele>
        <time>2011-10-16T12:20:56Z</time>
      </trkpt>
      <trkpt lat="48.96217" lon="1.05069">
        <ele>135.2</ele>
        <time>2011-10-16T12:21:07Z</time>
      </trkpt>
      <trkpt lat="48.96196" lon="1.05059">
        <ele>134.72</ele>
        <time>2011-10-16T12:21:15Z</time>
      </trkpt>
      <trkpt lat="48.96172" lon="1.05046">
        <ele>134.72</ele>
        <time>2011-10-16T12:21:25Z</time>
      </trkpt>
      <trkpt lat="48.9617" lon="1.05044">
        <ele>134.72</ele>
        <time>2011-10-16T12:21:26Z</time>
      </trkpt>
      <trkpt lat="48.96139" lon="1.05031">
        <ele>134.72</ele>
        <time>2011-10-16T12:21:35Z</time>
      </trkpt>
      <trkpt lat="48.96104" lon="1.05025">
        <ele>134.72</ele>
        <time>2011-10-16T12:21:46Z</time>
      </trkpt>
      <trkpt lat="48.96102" lon="1.05025">
        <ele>134.72</ele>
        <time>2011-10-16T12:21:47Z</time>
      </trkpt>
      <trkpt lat="48.9609" lon="1.05026">
        <ele>134.72</ele>
        <time>2011-10-16T12:21:51Z</time>
      </trkpt>
      <trkpt lat="48.96064" lon="1.05025">
        <ele>134.24</ele>
        <time>2011-10-16T12:22:00Z</time>
      </trkpt>
      <trkpt lat="48.96037" lon="1.05023">
        <ele>132.32</ele>
        <time>2011-10-16T12:22:10Z</time>
      </trkpt>
      <trkpt lat="48.96011" lon="1.05008">
        <ele>131.36</ele>
        <time>2011-10-16T12:22:17Z</time>
      </trkpt>
      <trkpt lat="48.96006" lon="1.05003">
        <ele>131.36</ele>
        <time>2011-10-16T12:22:19Z</time>
      </trkpt>
      <trkpt lat="48.95979" lon="1.04991">
        <ele>132.32</ele>
        <time>2011-10-16T12:22:28Z</time>
      </trkpt>
      <trkpt lat="48.95958" lon="1.04988">
        <ele>133.28</ele>
        <time>2011-10-16T12:22:37Z</time>
      </trkpt>
      <trkpt lat="48.95932" lon="1.04982">
        <ele>134.24</ele>
        <time>2011-10-16T12:22:47Z</time>
      </trkpt>
      <trkpt lat="48.95908" lon="1.04977">
        <ele>133.28</ele>
        <time>2011-10-16T12:22:56Z</time>
      </trkpt>
      <trkpt lat="48.95894" lon="1.0497">
        <ele>132.32</ele>
        <time>2011-10-16T12:23:01Z</time>
      </trkpt>
      <trkpt lat="48.95862" lon="1.0496">
        <ele>130.88</ele>
        <time>2011-10-16T12:23:10Z</time>
      </trkpt>
      <trkpt lat="48.95827" lon="1.04953">
        <ele>129.92</ele>
        <time>2011-10-16T12:23:21Z</time>
      </trkpt>
      <trkpt lat="48.95812" lon="1.04943">
        <ele>128.95</ele>
        <time>2011-10-16T12:23:25Z</time>
      </trkpt>
      <trkpt lat="48.95786" lon="1.0493">
        <ele>126.55</ele>
        <time>2011-10-16T12:23:35Z</time>
      </trkpt>
      <trkpt lat="48.95784" lon="1.04928">
        <ele>126.55</ele>
        <time>2011-10-16T12:23:36Z</time>
      </trkpt>
      <trkpt lat="48.9577" lon="1.04911">
        <ele>123.19</ele>
        <time>2011-10-16T12:23:46Z</time>
      </trkpt>
      <trkpt lat="48.95759" lon="1.04894">
        <ele>122.22</ele>
        <time>2011-10-16T12:23:53Z</time>
      </trkpt>
      <trkpt lat="48.95751" lon="1.04879">
        <ele>121.26</ele>
        <time>2011-10-16T12:23:59Z</time>
      </trkpt>
      <trkpt lat="48.95746" lon="1.04868">
        <ele>120.3</ele>
        <time>2011-10-16T12:24:07Z</time>
      </trkpt>
      <trkpt lat="48.95741" lon="1.04863">
        <ele>118.86</ele>
        <time>2011-10-16T12:24:10Z</time>
      </trkpt>
      <trkpt lat="48.95738" lon="1.04858">
        <ele>119.34</ele>
        <time>2011-10-16T12:24:14Z</time>
      </trkpt>
      <trkpt lat="48.95729" lon="1.04842">
        <ele>117.9</ele>
        <time>2011-10-16T12:24:21Z</time>
      </trkpt>
      <trkpt lat="48.95714" lon="1.04823">
        <ele>116.46</ele>
        <time>2011-10-16T12:24:30Z</time>
      </trkpt>
      <trkpt lat="48.95699" lon="1.04801">
        <ele>114.53</ele>
        <time>2011-10-16T12:24:42Z</time>
      </trkpt>
      <trkpt lat="48.95696" lon="1.04797">
        <ele>114.05</ele>
        <time>2011-10-16T12:24:44Z</time>
      </trkpt>
      <trkpt lat="48.95689" lon="1.04785">
        <ele>114.05</ele>
        <time>2011-10-16T12:24:48Z</time>
      </trkpt>
      <trkpt lat="48.95681" lon="1.04772">
        <ele>111.65</ele>
        <time>2011-10-16T12:24:52Z</time>
      </trkpt>
      <trkpt lat="48.95672" lon="1.04759">
        <ele>110.21</ele>
        <time>2011-10-16T12:24:56Z</time>
      </trkpt>
      <trkpt lat="48.95648" lon="1.0473">
        <ele>106.84</ele>
        <time>2011-10-16T12:25:03Z</time>
      </trkpt>
      <trkpt lat="48.95644" lon="1.04727">
        <ele>106.36</ele>
        <time>2011-10-16T12:25:04Z</time>
      </trkpt>
      <trkpt lat="48.95611" lon="1.04696">
        <ele>103</ele>
        <time>2011-10-16T12:25:12Z</time>
      </trkpt>
      <trkpt lat="48.95594" lon="1.0469">
        <ele>101.56</ele>
        <time>2011-10-16T12:25:16Z</time>
      </trkpt>
      <trkpt lat="48.95578" lon="1.0469">
        <ele>100.6</ele>
        <time>2011-10-16T12:25:19Z</time>
      </trkpt>
      <trkpt lat="48.95541" lon="1.04706">
        <ele>97.71</ele>
        <time>2011-10-16T12:25:24Z</time>
      </trkpt>
      <trkpt lat="48.95531" lon="1.04713">
        <ele>97.71</ele>
        <time>2011-10-16T12:25:26Z</time>
      </trkpt>
      <trkpt lat="48.95522" lon="1.04722">
        <ele>96.75</ele>
        <time>2011-10-16T12:25:28Z</time>
      </trkpt>
      <trkpt lat="48.95511" lon="1.04747">
        <ele>96.27</ele>
        <time>2011-10-16T12:25:32Z</time>
      </trkpt>
      <trkpt lat="48.95498" lon="1.04787">
        <ele>94.83</ele>
        <time>2011-10-16T12:25:38Z</time>
      </trkpt>
      <trkpt lat="48.95467" lon="1.04853">
        <ele>94.35</ele>
        <time>2011-10-16T12:25:48Z</time>
      </trkpt>
      <trkpt lat="48.95456" lon="1.04879">
        <ele>95.31</ele>
        <time>2011-10-16T12:25:52Z</time>
      </trkpt>
      <trkpt lat="48.95446" lon="1.04905">
        <ele>94.35</ele>
        <time>2011-10-16T12:25:56Z</time>
      </trkpt>
      <trkpt lat="48.9543" lon="1.04954">
        <ele>94.35</ele>
        <time>2011-10-16T12:26:03Z</time>
      </trkpt>
      <trkpt lat="48.95406" lon="1.05002">
        <ele>93.87</ele>
        <time>2011-10-16T12:26:11Z</time>
      </trkpt>
      <trkpt lat="48.95389" lon="1.05053">
        <ele>94.35</ele>
        <time>2011-10-16T12:26:19Z</time>
      </trkpt>
      <trkpt lat="48.95366" lon="1.0514">
        <ele>94.35</ele>
        <time>2011-10-16T12:26:34Z</time>
      </trkpt>
      <trkpt lat="48.95358" lon="1.05186">
        <ele>94.35</ele>
        <time>2011-10-16T12:26:40Z</time>
      </trkpt>
      <trkpt lat="48.95329" lon="1.05262">
        <ele>94.35</ele>
        <time>2011-10-16T12:26:54Z</time>
      </trkpt>
      <trkpt lat="48.95318" lon="1.05291">
        <ele>93.87</ele>
        <time>2011-10-16T12:26:59Z</time>
      </trkpt>
      <trkpt lat="48.95314" lon="1.05303">
        <ele>94.83</ele>
        <time>2011-10-16T12:27:01Z</time>
      </trkpt>
      <trkpt lat="48.95305" lon="1.05323">
        <ele>93.87</ele>
        <time>2011-10-16T12:27:05Z</time>
      </trkpt>
      <trkpt lat="48.95286" lon="1.05363">
        <ele>93.87</ele>
        <time>2011-10-16T12:27:13Z</time>
      </trkpt>
      <trkpt lat="48.9528" lon="1.05379">
        <ele>94.35</ele>
        <time>2011-10-16T12:27:16Z</time>
      </trkpt>
      <trkpt lat="48.95254" lon="1.05449">
        <ele>95.79</ele>
        <time>2011-10-16T12:27:32Z</time>
      </trkpt>
      <trkpt lat="48.95251" lon="1.05462">
        <ele>95.79</ele>
        <time>2011-10-16T12:27:36Z</time>
      </trkpt>
      <trkpt lat="48.9525" lon="1.0547">
        <ele>97.23</ele>
        <time>2011-10-16T12:27:39Z</time>
      </trkpt>
      <trkpt lat="48.95249" lon="1.05498">
        <ele>99.15</ele>
        <time>2011-10-16T12:27:51Z</time>
      </trkpt>
      <trkpt lat="48.95246" lon="1.05514">
        <ele>101.08</ele>
        <time>2011-10-16T12:28:07Z</time>
      </trkpt>
      <trkpt lat="48.95243" lon="1.0553">
        <ele>102.04</ele>
        <time>2011-10-16T12:28:20Z</time>
      </trkpt>
      <trkpt lat="48.95241" lon="1.05548">
        <ele>103</ele>
        <time>2011-10-16T12:28:34Z</time>
      </trkpt>
      <trkpt lat="48.9522" lon="1.05563">
        <ele>99.63</ele>
        <time>2011-10-16T12:28:45Z</time>
      </trkpt>
      <trkpt lat="48.95195" lon="1.05576">
        <ele>97.23</ele>
        <time>2011-10-16T12:28:52Z</time>
      </trkpt>
      <trkpt lat="48.95173" lon="1.05595">
        <ele>97.23</ele>
        <time>2011-10-16T12:29:00Z</time>
      </trkpt>
      <trkpt lat="48.95142" lon="1.05621">
        <ele>96.75</ele>
        <time>2011-10-16T12:29:12Z</time>
      </trkpt>
      <trkpt lat="48.95138" lon="1.05622">
        <ele>97.23</ele>
        <time>2011-10-16T12:29:14Z</time>
      </trkpt>
      <trkpt lat="48.95132" lon="1.05626">
        <ele>97.23</ele>
        <time>2011-10-16T12:29:18Z</time>
      </trkpt>
      <trkpt lat="48.95122" lon="1.05632">
        <ele>97.23</ele>
        <time>2011-10-16T12:29:23Z</time>
      </trkpt>
      <trkpt lat="48.95112" lon="1.05641">
        <ele>97.71</ele>
        <time>2011-10-16T12:29:29Z</time>
      </trkpt>
      <trkpt lat="48.95111" lon="1.05642">
        <ele>97.71</ele>
        <time>2011-10-16T12:29:31Z</time>
      </trkpt>
      <trkpt lat="48.95095" lon="1.05641">
        <ele>97.23</ele>
        <time>2011-10-16T12:29:40Z</time>
      </trkpt>
      <trkpt lat="48.95067" lon="1.05641">
        <ele>96.75</ele>
        <time>2011-10-16T12:29:50Z</time>
      </trkpt>
      <trkpt lat="48.9504" lon="1.05637">
        <ele>95.31</ele>
        <time>2011-10-16T12:30:01Z</time>
      </trkpt>
      <trkpt lat="48.95029" lon="1.05632">
        <ele>98.19</ele>
        <time>2011-10-16T12:30:10Z</time>
      </trkpt>
      <trkpt lat="48.95004" lon="1.05625">
        <ele>97.71</ele>
        <time>2011-10-16T12:30:23Z</time>
      </trkpt>
      <trkpt lat="48.94979" lon="1.05623">
        <ele>99.15</ele>
        <time>2011-10-16T12:30:34Z</time>
      </trkpt>
      <trkpt lat="48.94959" lon="1.05624">
        <ele>103</ele>
        <time>2011-10-16T12:30:47Z</time>
      </trkpt>
      <trkpt lat="48.94934" lon="1.05623">
        <ele>105.88</ele>
        <time>2011-10-16T12:30:58Z</time>
      </trkpt>
      <trkpt lat="48.94906" lon="1.05613">
        <ele>107.32</ele>
        <time>2011-10-16T12:31:18Z</time>
      </trkpt>
      <trkpt lat="48.94884" lon="1.05599">
        <ele>107.32</ele>
        <time>2011-10-16T12:31:27Z</time>
      </trkpt>
      <trkpt lat="48.94868" lon="1.05587">
        <ele>107.81</ele>
        <time>2011-10-16T12:31:36Z</time>
      </trkpt>
      <trkpt lat="48.9483" lon="1.05558">
        <ele>107.81</ele>
        <time>2011-10-16T12:31:49Z</time>
      </trkpt>
      <trkpt lat="48.94802" lon="1.05536">
        <ele>108.29</ele>
        <time>2011-10-16T12:31:58Z</time>
      </trkpt>
      <trkpt lat="48.94774" lon="1.05499">
        <ele>107.81</ele>
        <time>2011-10-16T12:32:09Z</time>
      </trkpt>
      <trkpt lat="48.94748" lon="1.05473">
        <ele>107.81</ele>
        <time>2011-10-16T12:32:18Z</time>
      </trkpt>
      <trkpt lat="48.9473" lon="1.05456">
        <ele>107.81</ele>
        <time>2011-10-16T12:32:25Z</time>
      </trkpt>
      <trkpt lat="48.94695" lon="1.05423">
        <ele>107.81</ele>
        <time>2011-10-16T12:32:38Z</time>
      </trkpt>
      <trkpt lat="48.94668" lon="1.0538">
        <ele>107.32</ele>
        <time>2011-10-16T12:32:51Z</time>
      </trkpt>
      <trkpt lat="48.94651" lon="1.05342">
        <ele>106.84</ele>
        <time>2011-10-16T12:33:02Z</time>
      </trkpt>
      <trkpt lat="48.94632" lon="1.05308">
        <ele>107.81</ele>
        <time>2011-10-16T12:33:13Z</time>
      </trkpt>
      <trkpt lat="48.94617" lon="1.05272">
        <ele>108.77</ele>
        <time>2011-10-16T12:33:25Z</time>
      </trkpt>
      <trkpt lat="48.94609" lon="1.05248">
        <ele>108.77</ele>
        <time>2011-10-16T12:33:32Z</time>
      </trkpt>
      <trkpt lat="48.94603" lon="1.05233">
        <ele>109.25</ele>
        <time>2011-10-16T12:33:37Z</time>
      </trkpt>
      <trkpt lat="48.94588" lon="1.05199">
        <ele>109.73</ele>
        <time>2011-10-16T12:33:51Z</time>
      </trkpt>
      <trkpt lat="48.94584" lon="1.05185">
        <ele>110.21</ele>
        <time>2011-10-16T12:33:55Z</time>
      </trkpt>
      <trkpt lat="48.94573" lon="1.05183">
        <ele>110.69</ele>
        <time>2011-10-16T12:34:03Z</time>
      </trkpt>
      <trkpt lat="48.94573" lon="1.05185">
        <ele>111.17</ele>
        <time>2011-10-16T12:34:04Z</time>
      </trkpt>
      <trkpt lat="48.94573" lon="1.05225">
        <ele>113.57</ele>
        <time>2011-10-16T12:34:18Z</time>
      </trkpt>
      <trkpt lat="48.94565" lon="1.05262">
        <ele>115.5</ele>
        <time>2011-10-16T12:34:32Z</time>
      </trkpt>
      <trkpt lat="48.94564" lon="1.05291">
        <ele>116.94</ele>
        <time>2011-10-16T12:34:43Z</time>
      </trkpt>
      <trkpt lat="48.94563" lon="1.05295">
        <ele>117.42</ele>
        <time>2011-10-16T12:34:45Z</time>
      </trkpt>
      <trkpt lat="48.94564" lon="1.05309">
        <ele>118.38</ele>
        <time>2011-10-16T12:34:50Z</time>
      </trkpt>
      <trkpt lat="48.94562" lon="1.05327">
        <ele>118.86</ele>
        <time>2011-10-16T12:34:57Z</time>
      </trkpt>
      <trkpt lat="48.94565" lon="1.0534">
        <ele>119.34</ele>
        <time>2011-10-16T12:35:02Z</time>
      </trkpt>
      <trkpt lat="48.94565" lon="1.05347">
        <ele>120.78</ele>
        <time>2011-10-16T12:35:05Z</time>
      </trkpt>
      <trkpt lat="48.94565" lon="1.05354">
        <ele>120.3</ele>
        <time>2011-10-16T12:35:08Z</time>
      </trkpt>
      <trkpt lat="48.94568" lon="1.05374">
        <ele>122.71</ele>
        <time>2011-10-16T12:35:17Z</time>
      </trkpt>
      <trkpt lat="48.9457" lon="1.05408">
        <ele>124.63</ele>
        <time>2011-10-16T12:35:31Z</time>
      </trkpt>
      <trkpt lat="48.9457" lon="1.05411">
        <ele>125.59</ele>
        <time>2011-10-16T12:35:32Z</time>
      </trkpt>
      <trkpt lat="48.94571" lon="1.05423">
        <ele>126.07</ele>
        <time>2011-10-16T12:35:37Z</time>
      </trkpt>
      <trkpt lat="48.94571" lon="1.05435">
        <ele>127.03</ele>
        <time>2011-10-16T12:35:43Z</time>
      </trkpt>
      <trkpt lat="48.94576" lon="1.05462">
        <ele>127.99</ele>
        <time>2011-10-16T12:35:55Z</time>
      </trkpt>
      <trkpt lat="48.94579" lon="1.05487">
        <ele>128.95</ele>
        <time>2011-10-16T12:36:04Z</time>
      </trkpt>
      <trkpt lat="48.94581" lon="1.05498">
        <ele>129.43</ele>
        <time>2011-10-16T12:36:08Z</time>
      </trkpt>
      <trkpt lat="48.94579" lon="1.05519">
        <ele>129.43</ele>
        <time>2011-10-16T12:36:16Z</time>
      </trkpt>
      <trkpt lat="48.94569" lon="1.05554">
        <ele>129.43</ele>
        <time>2011-10-16T12:36:29Z</time>
      </trkpt>
      <trkpt lat="48.94563" lon="1.05563">
        <ele>129.92</ele>
        <time>2011-10-16T12:36:33Z</time>
      </trkpt>
      <trkpt lat="48.94552" lon="1.05617">
        <ele>130.4</ele>
        <time>2011-10-16T12:36:48Z</time>
      </trkpt>
      <trkpt lat="48.94548" lon="1.05672">
        <ele>130.88</ele>
        <time>2011-10-16T12:37:01Z</time>
      </trkpt>
      <trkpt lat="48.94537" lon="1.05711">
        <ele>132.32</ele>
        <time>2011-10-16T12:37:12Z</time>
      </trkpt>
      <trkpt lat="48.94531" lon="1.05758">
        <ele>133.28</ele>
        <time>2011-10-16T12:37:23Z</time>
      </trkpt>
      <trkpt lat="48.94525" lon="1.05801">
        <ele>134.24</ele>
        <time>2011-10-16T12:37:34Z</time>
      </trkpt>
      <trkpt lat="48.94527" lon="1.05848">
        <ele>135.2</ele>
        <time>2011-10-16T12:37:45Z</time>
      </trkpt>
      <trkpt lat="48.94527" lon="1.05906">
        <ele>137.61</ele>
        <time>2011-10-16T12:37:59Z</time>
      </trkpt>
      <trkpt lat="48.94526" lon="1.05954">
        <ele>138.09</ele>
        <time>2011-10-16T12:38:10Z</time>
      </trkpt>
      <trkpt lat="48.94528" lon="1.05967">
        <ele>139.05</ele>
        <time>2011-10-16T12:38:13Z</time>
      </trkpt>
      <trkpt lat="48.94531" lon="1.05989">
        <ele>139.05</ele>
        <time>2011-10-16T12:38:18Z</time>
      </trkpt>
      <trkpt lat="48.94523" lon="1.06052">
        <ele>141.93</ele>
        <time>2011-10-16T12:38:35Z</time>
      </trkpt>
      <trkpt lat="48.94526" lon="1.06066">
        <ele>142.41</ele>
        <time>2011-10-16T12:38:39Z</time>
      </trkpt>
      <trkpt lat="48.94531" lon="1.06115">
        <ele>144.34</ele>
        <time>2011-10-16T12:38:55Z</time>
      </trkpt>
      <trkpt lat="48.94527" lon="1.06168">
        <ele>145.3</ele>
        <time>2011-10-16T12:39:12Z</time>
      </trkpt>
      <trkpt lat="48.94521" lon="1.06215">
        <ele>145.78</ele>
        <time>2011-10-16T12:39:25Z</time>
      </trkpt>
      <trkpt lat="48.94482" lon="1.06244">
        <ele>145.78</ele>
        <time>2011-10-16T12:39:38Z</time>
      </trkpt>
      <trkpt lat="48.94427" lon="1.06279">
        <ele>145.3</ele>
        <time>2011-10-16T12:39:52Z</time>
      </trkpt>
      <trkpt lat="48.94359" lon="1.06326">
        <ele>144.34</ele>
        <time>2011-10-16T12:40:07Z</time>
      </trkpt>
      <trkpt lat="48.9434" lon="1.06341">
        <ele>144.34</ele>
        <time>2011-10-16T12:40:11Z</time>
      </trkpt>
      <trkpt lat="48.94265" lon="1.06394">
        <ele>141.45</ele>
        <time>2011-10-16T12:40:25Z</time>
      </trkpt>
      <trkpt lat="48.94243" lon="1.06408">
        <ele>140.97</ele>
        <time>2011-10-16T12:40:29Z</time>
      </trkpt>
      <trkpt lat="48.94188" lon="1.06442">
        <ele>140.01</ele>
        <time>2011-10-16T12:40:38Z</time>
      </trkpt>
      <trkpt lat="48.94169" lon="1.06453">
        <ele>139.53</ele>
        <time>2011-10-16T12:40:41Z</time>
      </trkpt>
      <trkpt lat="48.94128" lon="1.06483">
        <ele>138.57</ele>
        <time>2011-10-16T12:40:49Z</time>
      </trkpt>
      <trkpt lat="48.9411" lon="1.06493">
        <ele>138.09</ele>
        <time>2011-10-16T12:40:52Z</time>
      </trkpt>
      <trkpt lat="48.9408" lon="1.06515">
        <ele>137.61</ele>
        <time>2011-10-16T12:40:58Z</time>
      </trkpt>
      <trkpt lat="48.94067" lon="1.06524">
        <ele>136.16</ele>
        <time>2011-10-16T12:41:00Z</time>
      </trkpt>
      <trkpt lat="48.94041" lon="1.06543">
        <ele>134.24</ele>
        <time>2011-10-16T12:41:04Z</time>
      </trkpt>
      <trkpt lat="48.94009" lon="1.06564">
        <ele>132.32</ele>
        <time>2011-10-16T12:41:09Z</time>
      </trkpt>
      <trkpt lat="48.93979" lon="1.0659">
        <ele>128.95</ele>
        <time>2011-10-16T12:41:14Z</time>
      </trkpt>
      <trkpt lat="48.93967" lon="1.066">
        <ele>128.95</ele>
        <time>2011-10-16T12:41:16Z</time>
      </trkpt>
      <trkpt lat="48.93919" lon="1.06632">
        <ele>130.4</ele>
        <time>2011-10-16T12:41:24Z</time>
      </trkpt>
      <trkpt lat="48.93883" lon="1.06656">
        <ele>132.8</ele>
        <time>2011-10-16T12:41:32Z</time>
      </trkpt>
      <trkpt lat="48.93859" lon="1.06672">
        <ele>133.76</ele>
        <time>2011-10-16T12:41:40Z</time>
      </trkpt>
      <trkpt lat="48.93835" lon="1.06696">
        <ele>135.2</ele>
        <time>2011-10-16T12:41:50Z</time>
      </trkpt>
      <trkpt lat="48.93829" lon="1.06702">
        <ele>135.68</ele>
        <time>2011-10-16T12:41:52Z</time>
      </trkpt>
      <trkpt lat="48.93802" lon="1.06718">
        <ele>135.68</ele>
        <time>2011-10-16T12:42:00Z</time>
      </trkpt>
      <trkpt lat="48.9377" lon="1.06744">
        <ele>137.13</ele>
        <time>2011-10-16T12:42:11Z</time>
      </trkpt>
      <trkpt lat="48.93768" lon="1.06747">
        <ele>137.13</ele>
        <time>2011-10-16T12:42:12Z</time>
      </trkpt>
      <trkpt lat="48.93761" lon="1.06753">
        <ele>136.64</ele>
        <time>2011-10-16T12:42:15Z</time>
      </trkpt>
      <trkpt lat="48.9374" lon="1.06772">
        <ele>138.09</ele>
        <time>2011-10-16T12:42:23Z</time>
      </trkpt>
      <trkpt lat="48.93709" lon="1.06792">
        <ele>139.05</ele>
        <time>2011-10-16T12:42:33Z</time>
      </trkpt>
      <trkpt lat="48.93681" lon="1.06808">
        <ele>138.09</ele>
        <time>2011-10-16T12:42:41Z</time>
      </trkpt>
      <trkpt lat="48.93639" lon="1.06831">
        <ele>139.53</ele>
        <time>2011-10-16T12:42:53Z</time>
      </trkpt>
      <trkpt lat="48.93606" lon="1.06852">
        <ele>140.97</ele>
        <time>2011-10-16T12:43:03Z</time>
      </trkpt>
      <trkpt lat="48.93574" lon="1.0687">
        <ele>140.01</ele>
        <time>2011-10-16T12:43:12Z</time>
      </trkpt>
      <trkpt lat="48.93531" lon="1.06897">
        <ele>139.53</ele>
        <time>2011-10-16T12:43:23Z</time>
      </trkpt>
      <trkpt lat="48.93523" lon="1.06903">
        <ele>139.53</ele>
        <time>2011-10-16T12:43:25Z</time>
      </trkpt>
      <trkpt lat="48.93506" lon="1.06915">
        <ele>139.05</ele>
        <time>2011-10-16T12:43:29Z</time>
      </trkpt>
      <trkpt lat="48.93497" lon="1.0692">
        <ele>139.05</ele>
        <time>2011-10-16T12:43:31Z</time>
      </trkpt>
      <trkpt lat="48.9346" lon="1.06944">
        <ele>139.53</ele>
        <time>2011-10-16T12:43:40Z</time>
      </trkpt>
      <trkpt lat="48.93434" lon="1.06971">
        <ele>140.01</ele>
        <time>2011-10-16T12:43:48Z</time>
      </trkpt>
      <trkpt lat="48.9339" lon="1.07">
        <ele>138.57</ele>
        <time>2011-10-16T12:43:58Z</time>
      </trkpt>
      <trkpt lat="48.93352" lon="1.07024">
        <ele>139.53</ele>
        <time>2011-10-16T12:44:07Z</time>
      </trkpt>
      <trkpt lat="48.93347" lon="1.07027">
        <ele>140.49</ele>
        <time>2011-10-16T12:44:08Z</time>
      </trkpt>
      <trkpt lat="48.93327" lon="1.07037">
        <ele>139.05</ele>
        <time>2011-10-16T12:44:12Z</time>
      </trkpt>
      <trkpt lat="48.93309" lon="1.07048">
        <ele>139.53</ele>
        <time>2011-10-16T12:44:16Z</time>
      </trkpt>
      <trkpt lat="48.93295" lon="1.07057">
        <ele>137.61</ele>
        <time>2011-10-16T12:44:19Z</time>
      </trkpt>
      <trkpt lat="48.93275" lon="1.07069">
        <ele>136.64</ele>
        <time>2011-10-16T12:44:23Z</time>
      </trkpt>
      <trkpt lat="48.93247" lon="1.07086">
        <ele>137.61</ele>
        <time>2011-10-16T12:44:29Z</time>
      </trkpt>
      <trkpt lat="48.93222" lon="1.07109">
        <ele>139.05</ele>
        <time>2011-10-16T12:44:37Z</time>
      </trkpt>
      <trkpt lat="48.93184" lon="1.07131">
        <ele>139.53</ele>
        <time>2011-10-16T12:44:46Z</time>
      </trkpt>
      <trkpt lat="48.93175" lon="1.07145">
        <ele>139.53</ele>
        <time>2011-10-16T12:44:49Z</time>
      </trkpt>
      <trkpt lat="48.93144" lon="1.07169">
        <ele>139.05</ele>
        <time>2011-10-16T12:44:58Z</time>
      </trkpt>
      <trkpt lat="48.93125" lon="1.07183">
        <ele>140.01</ele>
        <time>2011-10-16T12:45:03Z</time>
      </trkpt>
      <trkpt lat="48.93086" lon="1.0721">
        <ele>139.53</ele>
        <time>2011-10-16T12:45:13Z</time>
      </trkpt>
      <trkpt lat="48.93048" lon="1.07239">
        <ele>140.97</ele>
        <time>2011-10-16T12:45:23Z</time>
      </trkpt>
      <trkpt lat="48.93013" lon="1.07262">
        <ele>141.45</ele>
        <time>2011-10-16T12:45:33Z</time>
      </trkpt>
      <trkpt lat="48.92978" lon="1.07283">
        <ele>141.45</ele>
        <time>2011-10-16T12:45:43Z</time>
      </trkpt>
      <trkpt lat="48.92952" lon="1.07302">
        <ele>140.97</ele>
        <time>2011-10-16T12:45:50Z</time>
      </trkpt>
      <trkpt lat="48.9294" lon="1.07313">
        <ele>140.01</ele>
        <time>2011-10-16T12:45:54Z</time>
      </trkpt>
      <trkpt lat="48.92928" lon="1.07319">
        <ele>140.01</ele>
        <time>2011-10-16T12:45:58Z</time>
      </trkpt>
      <trkpt lat="48.92918" lon="1.07332">
        <ele>140.49</ele>
        <time>2011-10-16T12:46:10Z</time>
      </trkpt>
      <trkpt lat="48.92916" lon="1.07333">
        <ele>140.01</ele>
        <time>2011-10-16T12:46:11Z</time>
      </trkpt>
      <trkpt lat="48.92887" lon="1.07345">
        <ele>139.53</ele>
        <time>2011-10-16T12:46:23Z</time>
      </trkpt>
      <trkpt lat="48.92874" lon="1.07355">
        <ele>139.05</ele>
        <time>2011-10-16T12:46:28Z</time>
      </trkpt>
      <trkpt lat="48.92866" lon="1.07367">
        <ele>139.05</ele>
        <time>2011-10-16T12:46:32Z</time>
      </trkpt>
      <trkpt lat="48.92833" lon="1.07384">
        <ele>139.05</ele>
        <time>2011-10-16T12:46:43Z</time>
      </trkpt>
      <trkpt lat="48.92823" lon="1.07396">
        <ele>139.05</ele>
        <time>2011-10-16T12:46:48Z</time>
      </trkpt>
      <trkpt lat="48.92799" lon="1.07411">
        <ele>139.05</ele>
        <time>2011-10-16T12:46:58Z</time>
      </trkpt>
      <trkpt lat="48.92765" lon="1.07433">
        <ele>138.57</ele>
        <time>2011-10-16T12:47:08Z</time>
      </trkpt>
      <trkpt lat="48.92748" lon="1.07448">
        <ele>138.57</ele>
        <time>2011-10-16T12:47:15Z</time>
      </trkpt>
      <trkpt lat="48.92738" lon="1.07451">
        <ele>138.09</ele>
        <time>2011-10-16T12:47:22Z</time>
      </trkpt>
      <trkpt lat="48.92738" lon="1.07473">
        <ele>138.57</ele>
        <time>2011-10-16T12:47:28Z</time>
      </trkpt>
      <trkpt lat="48.92733" lon="1.0751">
        <ele>139.53</ele>
        <time>2011-10-16T12:47:35Z</time>
      </trkpt>
      <trkpt lat="48.92731" lon="1.07552">
        <ele>140.97</ele>
        <time>2011-10-16T12:47:43Z</time>
      </trkpt>
      <trkpt lat="48.92728" lon="1.07615">
        <ele>141.45</ele>
        <time>2011-10-16T12:47:55Z</time>
      </trkpt>
      <trkpt lat="48.92728" lon="1.0762">
        <ele>142.41</ele>
        <time>2011-10-16T12:47:56Z</time>
      </trkpt>
      <trkpt lat="48.92728" lon="1.07666">
        <ele>142.89</ele>
        <time>2011-10-16T12:48:06Z</time>
      </trkpt>
      <trkpt lat="48.92728" lon="1.07698">
        <ele>142.89</ele>
        <time>2011-10-16T12:48:14Z</time>
      </trkpt>
      <trkpt lat="48.92727" lon="1.07724">
        <ele>143.37</ele>
        <time>2011-10-16T12:48:20Z</time>
      </trkpt>
      <trkpt lat="48.92727" lon="1.07783">
        <ele>144.34</ele>
        <time>2011-10-16T12:48:32Z</time>
      </trkpt>
      <trkpt lat="48.92732" lon="1.0782">
        <ele>145.3</ele>
        <time>2011-10-16T12:48:41Z</time>
      </trkpt>
      <trkpt lat="48.92734" lon="1.0784">
        <ele>145.78</ele>
        <time>2011-10-16T12:48:46Z</time>
      </trkpt>
      <trkpt lat="48.92729" lon="1.07851">
        <ele>145.78</ele>
        <time>2011-10-16T12:48:50Z</time>
      </trkpt>
      <trkpt lat="48.92719" lon="1.07854">
        <ele>144.82</ele>
        <time>2011-10-16T12:48:56Z</time>
      </trkpt>
      <trkpt lat="48.92686" lon="1.07825">
        <ele>143.85</ele>
        <time>2011-10-16T12:49:06Z</time>
      </trkpt>
      <trkpt lat="48.9265" lon="1.07816">
        <ele>144.34</ele>
        <time>2011-10-16T12:49:12Z</time>
      </trkpt>
      <trkpt lat="48.9263" lon="1.07817">
        <ele>143.85</ele>
        <time>2011-10-16T12:49:15Z</time>
      </trkpt>
      <trkpt lat="48.92614" lon="1.07819">
        <ele>143.85</ele>
        <time>2011-10-16T12:49:19Z</time>
      </trkpt>
      <trkpt lat="48.92593" lon="1.07822">
        <ele>142.41</ele>
        <time>2011-10-16T12:49:23Z</time>
      </trkpt>
      <trkpt lat="48.92578" lon="1.0783">
        <ele>142.89</ele>
        <time>2011-10-16T12:49:26Z</time>
      </trkpt>
      <trkpt lat="48.92569" lon="1.07838">
        <ele>142.89</ele>
        <time>2011-10-16T12:49:28Z</time>
      </trkpt>
      <trkpt lat="48.92546" lon="1.07856">
        <ele>142.89</ele>
        <time>2011-10-16T12:49:33Z</time>
      </trkpt>
      <trkpt lat="48.92508" lon="1.07871">
        <ele>143.37</ele>
        <time>2011-10-16T12:49:41Z</time>
      </trkpt>
      <trkpt lat="48.92431" lon="1.07902">
        <ele>144.34</ele>
        <time>2011-10-16T12:49:58Z</time>
      </trkpt>
      <trkpt lat="48.92387" lon="1.07905">
        <ele>144.34</ele>
        <time>2011-10-16T12:50:07Z</time>
      </trkpt>
      <trkpt lat="48.92345" lon="1.0792">
        <ele>143.85</ele>
        <time>2011-10-16T12:50:16Z</time>
      </trkpt>
      <trkpt lat="48.92309" lon="1.07912">
        <ele>144.34</ele>
        <time>2011-10-16T12:50:23Z</time>
      </trkpt>
      <trkpt lat="48.92274" lon="1.07884">
        <ele>142.41</ele>
        <time>2011-10-16T12:50:30Z</time>
      </trkpt>
      <trkpt lat="48.92253" lon="1.07875">
        <ele>142.89</ele>
        <time>2011-10-16T12:50:34Z</time>
      </trkpt>
      <trkpt lat="48.92188" lon="1.07852">
        <ele>142.89</ele>
        <time>2011-10-16T12:50:49Z</time>
      </trkpt>
      <trkpt lat="48.92139" lon="1.07881">
        <ele>142.89</ele>
        <time>2011-10-16T12:51:03Z</time>
      </trkpt>
      <trkpt lat="48.92097" lon="1.07908">
        <ele>143.85</ele>
        <time>2011-10-16T12:51:17Z</time>
      </trkpt>
      <trkpt lat="48.9206" lon="1.07932">
        <ele>143.37</ele>
        <time>2011-10-16T12:51:30Z</time>
      </trkpt>
      <trkpt lat="48.92025" lon="1.07946">
        <ele>145.3</ele>
        <time>2011-10-16T12:51:41Z</time>
      </trkpt>
      <trkpt lat="48.91983" lon="1.07979">
        <ele>145.78</ele>
        <time>2011-10-16T12:51:55Z</time>
      </trkpt>
      <trkpt lat="48.91934" lon="1.08014">
        <ele>145.78</ele>
        <time>2011-10-16T12:52:10Z</time>
      </trkpt>
      <trkpt lat="48.91932" lon="1.08016">
        <ele>145.78</ele>
        <time>2011-10-16T12:52:11Z</time>
      </trkpt>
      <trkpt lat="48.9194" lon="1.0806">
        <ele>145.78</ele>
        <time>2011-10-16T12:52:21Z</time>
      </trkpt>
      <trkpt lat="48.91957" lon="1.08132">
        <ele>146.74</ele>
        <time>2011-10-16T12:52:37Z</time>
      </trkpt>
      <trkpt lat="48.9196" lon="1.08144">
        <ele>147.22</ele>
        <time>2011-10-16T12:52:40Z</time>
      </trkpt>
      <trkpt lat="48.91972" lon="1.08173">
        <ele>147.22</ele>
        <time>2011-10-16T12:52:48Z</time>
      </trkpt>
      <trkpt lat="48.91983" lon="1.08187">
        <ele>145.78</ele>
        <time>2011-10-16T12:52:53Z</time>
      </trkpt>
      <trkpt lat="48.91997" lon="1.0821">
        <ele>146.74</ele>
        <time>2011-10-16T12:52:59Z</time>
      </trkpt>
      <trkpt lat="48.92007" lon="1.08252">
        <ele>146.74</ele>
        <time>2011-10-16T12:53:08Z</time>
      </trkpt>
      <trkpt lat="48.92005" lon="1.08318">
        <ele>149.14</ele>
        <time>2011-10-16T12:53:21Z</time>
      </trkpt>
      <trkpt lat="48.92004" lon="1.08368">
        <ele>148.18</ele>
        <time>2011-10-16T12:53:30Z</time>
      </trkpt>
      <trkpt lat="48.91941" lon="1.08416">
        <ele>146.74</ele>
        <time>2011-10-16T12:53:47Z</time>
      </trkpt>
      <trkpt lat="48.91853" lon="1.08484">
        <ele>145.78</ele>
        <time>2011-10-16T12:54:07Z</time>
      </trkpt>
      <trkpt lat="48.91829" lon="1.08508">
        <ele>145.78</ele>
        <time>2011-10-16T12:54:13Z</time>
      </trkpt>
      <trkpt lat="48.91788" lon="1.08557">
        <ele>144.34</ele>
        <time>2011-10-16T12:54:23Z</time>
      </trkpt>
      <trkpt lat="48.9178" lon="1.08567">
        <ele>144.82</ele>
        <time>2011-10-16T12:54:25Z</time>
      </trkpt>
      <trkpt lat="48.91742" lon="1.08617">
        <ele>145.78</ele>
        <time>2011-10-16T12:54:35Z</time>
      </trkpt>
      <trkpt lat="48.91705" lon="1.08664">
        <ele>144.82</ele>
        <time>2011-10-16T12:54:46Z</time>
      </trkpt>
      <trkpt lat="48.91689" lon="1.08688">
        <ele>144.82</ele>
        <time>2011-10-16T12:54:52Z</time>
      </trkpt>
      <trkpt lat="48.91718" lon="1.08791">
        <ele>145.78</ele>
        <time>2011-10-16T12:55:10Z</time>
      </trkpt>
      <trkpt lat="48.91742" lon="1.08862">
        <ele>147.7</ele>
        <time>2011-10-16T12:55:24Z</time>
      </trkpt>
      <trkpt lat="48.91762" lon="1.0894">
        <ele>148.66</ele>
        <time>2011-10-16T12:55:39Z</time>
      </trkpt>
      <trkpt lat="48.91762" lon="1.08955">
        <ele>149.14</ele>
        <time>2011-10-16T12:55:42Z</time>
      </trkpt>
      <trkpt lat="48.91768" lon="1.0897">
        <ele>148.18</ele>
        <time>2011-10-16T12:55:46Z</time>
      </trkpt>
      <trkpt lat="48.91807" lon="1.09049">
        <ele>150.1</ele>
        <time>2011-10-16T12:56:04Z</time>
      </trkpt>
      <trkpt lat="48.91838" lon="1.09121">
        <ele>150.58</ele>
        <time>2011-10-16T12:56:19Z</time>
      </trkpt>
      <trkpt lat="48.91876" lon="1.09193">
        <ele>152.03</ele>
        <time>2011-10-16T12:56:35Z</time>
      </trkpt>
      <trkpt lat="48.91913" lon="1.09284">
        <ele>152.51</ele>
        <time>2011-10-16T12:56:54Z</time>
      </trkpt>
      <trkpt lat="48.91933" lon="1.0927">
        <ele>152.51</ele>
        <time>2011-10-16T12:57:02Z</time>
      </trkpt>
      <trkpt lat="48.91999" lon="1.09206">
        <ele>152.99</ele>
        <time>2011-10-16T12:57:22Z</time>
      </trkpt>
      <trkpt lat="48.92098" lon="1.09169">
        <ele>153.95</ele>
        <time>2011-10-16T12:57:47Z</time>
      </trkpt>
      <trkpt lat="48.92159" lon="1.09116">
        <ele>152.03</ele>
        <time>2011-10-16T12:58:05Z</time>
      </trkpt>
      <trkpt lat="48.92236" lon="1.09045">
        <ele>152.51</ele>
        <time>2011-10-16T12:58:28Z</time>
      </trkpt>
      <trkpt lat="48.92252" lon="1.09061">
        <ele>152.03</ele>
        <time>2011-10-16T12:58:34Z</time>
      </trkpt>
      <trkpt lat="48.92304" lon="1.09208">
        <ele>152.03</ele>
        <time>2011-10-16T12:58:58Z</time>
      </trkpt>
      <trkpt lat="48.92338" lon="1.09331">
        <ele>152.51</ele>
        <time>2011-10-16T12:59:17Z</time>
      </trkpt>
      <trkpt lat="48.92356" lon="1.09356">
        <ele>151.06</ele>
        <time>2011-10-16T12:59:23Z</time>
      </trkpt>
      <trkpt lat="48.92421" lon="1.09415">
        <ele>151.54</ele>
        <time>2011-10-16T12:59:44Z</time>
      </trkpt>
      <trkpt lat="48.9243" lon="1.09424">
        <ele>152.03</ele>
        <time>2011-10-16T12:59:49Z</time>
      </trkpt>
      <trkpt lat="48.92435" lon="1.09427">
        <ele>152.03</ele>
        <time>2011-10-16T12:59:53Z</time>
      </trkpt>
      <trkpt lat="48.92459" lon="1.09454">
        <ele>151.06</ele>
        <time>2011-10-16T13:00:04Z</time>
      </trkpt>
      <trkpt lat="48.92497" lon="1.09494">
        <ele>149.14</ele>
        <time>2011-10-16T13:00:10Z</time>
      </trkpt>
      <trkpt lat="48.92557" lon="1.09602">
        <ele>148.18</ele>
        <time>2011-10-16T13:00:22Z</time>
      </trkpt>
      <trkpt lat="48.92672" lon="1.0988">
        <ele>145.78</ele>
        <time>2011-10-16T13:00:50Z</time>
      </trkpt>
      <trkpt lat="48.92696" lon="1.0996">
        <ele>144.34</ele>
        <time>2011-10-16T13:00:59Z</time>
      </trkpt>
      <trkpt lat="48.92719" lon="1.09962">
        <ele>145.3</ele>
        <time>2011-10-16T13:01:05Z</time>
      </trkpt>
      <trkpt lat="48.92827" lon="1.0987">
        <ele>144.34</ele>
        <time>2011-10-16T13:01:26Z</time>
      </trkpt>
      <trkpt lat="48.92955" lon="1.09763">
        <ele>143.85</ele>
        <time>2011-10-16T13:01:53Z</time>
      </trkpt>
      <trkpt lat="48.92965" lon="1.09755">
        <ele>144.82</ele>
        <time>2011-10-16T13:01:55Z</time>
      </trkpt>
      <trkpt lat="48.92983" lon="1.09729">
        <ele>143.85</ele>
        <time>2011-10-16T13:02:00Z</time>
      </trkpt>
      <trkpt lat="48.92988" lon="1.09708">
        <ele>145.78</ele>
        <time>2011-10-16T13:02:03Z</time>
      </trkpt>
      <trkpt lat="48.9299" lon="1.0963">
        <ele>144.82</ele>
        <time>2011-10-16T13:02:17Z</time>
      </trkpt>
      <trkpt lat="48.92987" lon="1.09621">
        <ele>143.85</ele>
        <time>2011-10-16T13:02:19Z</time>
      </trkpt>
      <trkpt lat="48.92995" lon="1.09605">
        <ele>143.85</ele>
        <time>2011-10-16T13:02:23Z</time>
      </trkpt>
      <trkpt lat="48.9307" lon="1.09544">
        <ele>145.78</ele>
        <time>2011-10-16T13:02:49Z</time>
      </trkpt>
      <trkpt lat="48.93134" lon="1.0949">
        <ele>148.18</ele>
        <time>2011-10-16T13:03:12Z</time>
      </trkpt>
      <trkpt lat="48.93212" lon="1.09423">
        <ele>150.1</ele>
        <time>2011-10-16T13:03:40Z</time>
      </trkpt>
      <trkpt lat="48.9323" lon="1.09408">
        <ele>149.14</ele>
        <time>2011-10-16T13:03:47Z</time>
      </trkpt>
      <trkpt lat="48.93238" lon="1.09424">
        <ele>148.66</ele>
        <time>2011-10-16T13:03:52Z</time>
      </trkpt>
      <trkpt lat="48.93239" lon="1.09548">
        <ele>147.22</ele>
        <time>2011-10-16T13:04:08Z</time>
      </trkpt>
      <trkpt lat="48.93239" lon="1.09763">
        <ele>143.85</ele>
        <time>2011-10-16T13:04:29Z</time>
      </trkpt>
      <trkpt lat="48.93259" lon="1.09923">
        <ele>141.45</ele>
        <time>2011-10-16T13:04:43Z</time>
      </trkpt>
      <trkpt lat="48.93267" lon="1.10141">
        <ele>139.53</ele>
        <time>2011-10-16T13:05:00Z</time>
      </trkpt>
      <trkpt lat="48.93251" lon="1.10304">
        <ele>137.13</ele>
        <time>2011-10-16T13:05:13Z</time>
      </trkpt>
      <trkpt lat="48.93262" lon="1.10462">
        <ele>135.2</ele>
        <time>2011-10-16T13:05:26Z</time>
      </trkpt>
      <trkpt lat="48.93221" lon="1.10621">
        <ele>134.72</ele>
        <time>2011-10-16T13:05:40Z</time>
      </trkpt>
      <trkpt lat="48.93214" lon="1.10752">
        <ele>134.24</ele>
        <time>2011-10-16T13:05:52Z</time>
      </trkpt>
      <trkpt lat="48.9325" lon="1.10958">
        <ele>132.32</ele>
        <time>2011-10-16T13:06:11Z</time>
      </trkpt>
      <trkpt lat="48.93314" lon="1.11187">
        <ele>131.36</ele>
        <time>2011-10-16T13:06:32Z</time>
      </trkpt>
      <trkpt lat="48.93359" lon="1.1129">
        <ele>133.28</ele>
        <time>2011-10-16T13:06:46Z</time>
      </trkpt>
      <trkpt lat="48.93385" lon="1.11341">
        <ele>133.76</ele>
        <time>2011-10-16T13:06:55Z</time>
      </trkpt>
      <trkpt lat="48.934" lon="1.11385">
        <ele>134.24</ele>
        <time>2011-10-16T13:07:07Z</time>
      </trkpt>
      <trkpt lat="48.93445" lon="1.1141">
        <ele>135.2</ele>
        <time>2011-10-16T13:07:21Z</time>
      </trkpt>
      <trkpt lat="48.93459" lon="1.11413">
        <ele>134.72</ele>
        <time>2011-10-16T13:07:25Z</time>
      </trkpt>
      <trkpt lat="48.93466" lon="1.11413">
        <ele>135.2</ele>
        <time>2011-10-16T13:07:27Z</time>
      </trkpt>
      <trkpt lat="48.93514" lon="1.11389">
        <ele>136.64</ele>
        <time>2011-10-16T13:07:40Z</time>
      </trkpt>
      <trkpt lat="48.93567" lon="1.11311">
        <ele>137.13</ele>
        <time>2011-10-16T13:07:58Z</time>
      </trkpt>
      <trkpt lat="48.93616" lon="1.11234">
        <ele>135.68</ele>
        <time>2011-10-16T13:08:14Z</time>
      </trkpt>
      <trkpt lat="48.93619" lon="1.11229">
        <ele>135.68</ele>
        <time>2011-10-16T13:08:15Z</time>
      </trkpt>
      <trkpt lat="48.93629" lon="1.11213">
        <ele>134.72</ele>
        <time>2011-10-16T13:08:18Z</time>
      </trkpt>
      <trkpt lat="48.93692" lon="1.11113">
        <ele>134.24</ele>
        <time>2011-10-16T13:08:34Z</time>
      </trkpt>
      <trkpt lat="48.93793" lon="1.10954">
        <ele>133.28</ele>
        <time>2011-10-16T13:08:58Z</time>
      </trkpt>
      <trkpt lat="48.93859" lon="1.10851">
        <ele>135.2</ele>
        <time>2011-10-16T13:09:17Z</time>
      </trkpt>
      <trkpt lat="48.93911" lon="1.10769">
        <ele>138.57</ele>
        <time>2011-10-16T13:09:36Z</time>
      </trkpt>
      <trkpt lat="48.93968" lon="1.1069">
        <ele>140.49</ele>
        <time>2011-10-16T13:09:57Z</time>
      </trkpt>
      <trkpt lat="48.93998" lon="1.10649">
        <ele>141.45</ele>
        <time>2011-10-16T13:10:08Z</time>
      </trkpt>
      <trkpt lat="48.9404" lon="1.10602">
        <ele>141.93</ele>
        <time>2011-10-16T13:10:20Z</time>
      </trkpt>
      <trkpt lat="48.94101" lon="1.10524">
        <ele>141.93</ele>
        <time>2011-10-16T13:10:37Z</time>
      </trkpt>
      <trkpt lat="48.94116" lon="1.10499">
        <ele>141.45</ele>
        <time>2011-10-16T13:10:42Z</time>
      </trkpt>
      <trkpt lat="48.94128" lon="1.10473">
        <ele>140.97</ele>
        <time>2011-10-16T13:10:46Z</time>
      </trkpt>
      <trkpt lat="48.94152" lon="1.10389">
        <ele>140.49</ele>
        <time>2011-10-16T13:10:56Z</time>
      </trkpt>
      <trkpt lat="48.94167" lon="1.10349">
        <ele>139.53</ele>
        <time>2011-10-16T13:11:01Z</time>
      </trkpt>
      <trkpt lat="48.94238" lon="1.10239">
        <ele>139.05</ele>
        <time>2011-10-16T13:11:20Z</time>
      </trkpt>
      <trkpt lat="48.94288" lon="1.1019">
        <ele>137.61</ele>
        <time>2011-10-16T13:11:31Z</time>
      </trkpt>
      <trkpt lat="48.94302" lon="1.10175">
        <ele>137.61</ele>
        <time>2011-10-16T13:11:34Z</time>
      </trkpt>
      <trkpt lat="48.9433" lon="1.10123">
        <ele>137.13</ele>
        <time>2011-10-16T13:11:42Z</time>
      </trkpt>
      <trkpt lat="48.94338" lon="1.10099">
        <ele>138.09</ele>
        <time>2011-10-16T13:11:46Z</time>
      </trkpt>
      <trkpt lat="48.94398" lon="1.09998">
        <ele>139.05</ele>
        <time>2011-10-16T13:12:07Z</time>
      </trkpt>
      <trkpt lat="48.94441" lon="1.09934">
        <ele>137.61</ele>
        <time>2011-10-16T13:12:21Z</time>
      </trkpt>
      <trkpt lat="48.9445" lon="1.09919">
        <ele>136.64</ele>
        <time>2011-10-16T13:12:24Z</time>
      </trkpt>
      <trkpt lat="48.94472" lon="1.0992">
        <ele>138.57</ele>
        <time>2011-10-16T13:12:30Z</time>
      </trkpt>
      <trkpt lat="48.94525" lon="1.10016">
        <ele>140.49</ele>
        <time>2011-10-16T13:12:52Z</time>
      </trkpt>
      <trkpt lat="48.94575" lon="1.10093">
        <ele>141.45</ele>
        <time>2011-10-16T13:13:11Z</time>
      </trkpt>
      <trkpt lat="48.94586" lon="1.10115">
        <ele>140.49</ele>
        <time>2011-10-16T13:13:16Z</time>
      </trkpt>
      <trkpt lat="48.94607" lon="1.10161">
        <ele>140.97</ele>
        <time>2011-10-16T13:13:28Z</time>
      </trkpt>
      <trkpt lat="48.9465" lon="1.10264">
        <ele>141.45</ele>
        <time>2011-10-16T13:13:47Z</time>
      </trkpt>
      <trkpt lat="48.94694" lon="1.10401">
        <ele>141.93</ele>
        <time>2011-10-16T13:14:08Z</time>
      </trkpt>
      <trkpt lat="48.94725" lon="1.10485">
        <ele>141.93</ele>
        <time>2011-10-16T13:14:26Z</time>
      </trkpt>
      <trkpt lat="48.94738" lon="1.10489">
        <ele>141.93</ele>
        <time>2011-10-16T13:14:36Z</time>
      </trkpt>
      <trkpt lat="48.9474" lon="1.10487">
        <ele>142.41</ele>
        <time>2011-10-16T13:14:39Z</time>
      </trkpt>
      <trkpt lat="48.94776" lon="1.10469">
        <ele>142.89</ele>
        <time>2011-10-16T13:14:52Z</time>
      </trkpt>
      <trkpt lat="48.94782" lon="1.10461">
        <ele>142.89</ele>
        <time>2011-10-16T13:14:56Z</time>
      </trkpt>
      <trkpt lat="48.94796" lon="1.10454">
        <ele>142.41</ele>
        <time>2011-10-16T13:15:01Z</time>
      </trkpt>
      <trkpt lat="48.94822" lon="1.10431">
        <ele>143.37</ele>
        <time>2011-10-16T13:15:11Z</time>
      </trkpt>
      <trkpt lat="48.94859" lon="1.1042">
        <ele>143.37</ele>
        <time>2011-10-16T13:15:21Z</time>
      </trkpt>
      <trkpt lat="48.94901" lon="1.10421">
        <ele>144.34</ele>
        <time>2011-10-16T13:15:31Z</time>
      </trkpt>
      <trkpt lat="48.94922" lon="1.10421">
        <ele>143.85</ele>
        <time>2011-10-16T13:15:38Z</time>
      </trkpt>
      <trkpt lat="48.94936" lon="1.10419">
        <ele>144.34</ele>
        <time>2011-10-16T13:15:43Z</time>
      </trkpt>
      <trkpt lat="48.9497" lon="1.10428">
        <ele>144.82</ele>
        <time>2011-10-16T13:15:52Z</time>
      </trkpt>
      <trkpt lat="48.95005" lon="1.10442">
        <ele>145.3</ele>
        <time>2011-10-16T13:16:02Z</time>
      </trkpt>
      <trkpt lat="48.95032" lon="1.10457">
        <ele>147.22</ele>
        <time>2011-10-16T13:16:11Z</time>
      </trkpt>
      <trkpt lat="48.95067" lon="1.10476">
        <ele>147.7</ele>
        <time>2011-10-16T13:16:24Z</time>
      </trkpt>
      <trkpt lat="48.95068" lon="1.10476">
        <ele>147.22</ele>
        <time>2011-10-16T13:16:25Z</time>
      </trkpt>
      <trkpt lat="48.95072" lon="1.10458">
        <ele>147.7</ele>
        <time>2011-10-16T13:16:31Z</time>
      </trkpt>
      <trkpt lat="48.95074" lon="1.10446">
        <ele>147.7</ele>
        <time>2011-10-16T13:16:34Z</time>
      </trkpt>
      <trkpt lat="48.95094" lon="1.10423">
        <ele>147.7</ele>
        <time>2011-10-16T13:16:42Z</time>
      </trkpt>
      <trkpt lat="48.95108" lon="1.10408">
        <ele>147.22</ele>
        <time>2011-10-16T13:16:47Z</time>
      </trkpt>
      <trkpt lat="48.95119" lon="1.10389">
        <ele>147.7</ele>
        <time>2011-10-16T13:16:53Z</time>
      </trkpt>
      <trkpt lat="48.95125" lon="1.10382">
        <ele>147.22</ele>
        <time>2011-10-16T13:16:55Z</time>
      </trkpt>
      <trkpt lat="48.95129" lon="1.10372">
        <ele>147.7</ele>
        <time>2011-10-16T13:16:58Z</time>
      </trkpt>
      <trkpt lat="48.9515" lon="1.1035">
        <ele>147.22</ele>
        <time>2011-10-16T13:17:05Z</time>
      </trkpt>
      <trkpt lat="48.95155" lon="1.10346">
        <ele>147.7</ele>
        <time>2011-10-16T13:17:06Z</time>
      </trkpt>
      <trkpt lat="48.95172" lon="1.1032">
        <ele>148.18</ele>
        <time>2011-10-16T13:17:14Z</time>
      </trkpt>
      <trkpt lat="48.95197" lon="1.10287">
        <ele>148.66</ele>
        <time>2011-10-16T13:17:25Z</time>
      </trkpt>
      <trkpt lat="48.9521" lon="1.10268">
        <ele>149.14</ele>
        <time>2011-10-16T13:17:31Z</time>
      </trkpt>
      <trkpt lat="48.95241" lon="1.10228">
        <ele>150.1</ele>
        <time>2011-10-16T13:17:44Z</time>
      </trkpt>
      <trkpt lat="48.95252" lon="1.10214">
        <ele>149.62</ele>
        <time>2011-10-16T13:17:49Z</time>
      </trkpt>
      <trkpt lat="48.95284" lon="1.10171">
        <ele>150.58</ele>
        <time>2011-10-16T13:18:03Z</time>
      </trkpt>
      <trkpt lat="48.95322" lon="1.10119">
        <ele>151.06</ele>
        <time>2011-10-16T13:18:19Z</time>
      </trkpt>
      <trkpt lat="48.95361" lon="1.10067">
        <ele>150.58</ele>
        <time>2011-10-16T13:18:34Z</time>
      </trkpt>
      <trkpt lat="48.95408" lon="1.10004">
        <ele>149.62</ele>
        <time>2011-10-16T13:18:51Z</time>
      </trkpt>
      <trkpt lat="48.95469" lon="1.0992">
        <ele>147.7</ele>
        <time>2011-10-16T13:19:10Z</time>
      </trkpt>
      <trkpt lat="48.95564" lon="1.0979">
        <ele>146.26</ele>
        <time>2011-10-16T13:19:34Z</time>
      </trkpt>
      <trkpt lat="48.95617" lon="1.09716">
        <ele>145.78</ele>
        <time>2011-10-16T13:19:52Z</time>
      </trkpt>
      <trkpt lat="48.9562" lon="1.09712">
        <ele>145.78</ele>
        <time>2011-10-16T13:19:53Z</time>
      </trkpt>
      <trkpt lat="48.95636" lon="1.0969">
        <ele>145.78</ele>
        <time>2011-10-16T13:19:58Z</time>
      </trkpt>
      <trkpt lat="48.95677" lon="1.09629">
        <ele>145.3</ele>
        <time>2011-10-16T13:20:13Z</time>
      </trkpt>
      <trkpt lat="48.957" lon="1.09598">
        <ele>145.78</ele>
        <time>2011-10-16T13:20:21Z</time>
      </trkpt>
      <trkpt lat="48.9573" lon="1.09561">
        <ele>146.74</ele>
        <time>2011-10-16T13:20:32Z</time>
      </trkpt>
      <trkpt lat="48.95748" lon="1.09536">
        <ele>146.74</ele>
        <time>2011-10-16T13:20:40Z</time>
      </trkpt>
      <trkpt lat="48.9578" lon="1.09492">
        <ele>146.74</ele>
        <time>2011-10-16T13:20:52Z</time>
      </trkpt>
      <trkpt lat="48.9582" lon="1.09437">
        <ele>145.78</ele>
        <time>2011-10-16T13:21:06Z</time>
      </trkpt>
      <trkpt lat="48.95826" lon="1.09429">
        <ele>144.34</ele>
        <time>2011-10-16T13:21:08Z</time>
      </trkpt>
      <trkpt lat="48.95832" lon="1.0942">
        <ele>143.85</ele>
        <time>2011-10-16T13:21:10Z</time>
      </trkpt>
      <trkpt lat="48.95862" lon="1.09378">
        <ele>140.97</ele>
        <time>2011-10-16T13:21:19Z</time>
      </trkpt>
      <trkpt lat="48.9587" lon="1.09379">
        <ele>141.45</ele>
        <time>2011-10-16T13:21:24Z</time>
      </trkpt>
      <trkpt lat="48.95892" lon="1.0942">
        <ele>143.37</ele>
        <time>2011-10-16T13:21:38Z</time>
      </trkpt>
      <trkpt lat="48.95899" lon="1.09431">
        <ele>144.34</ele>
        <time>2011-10-16T13:21:42Z</time>
      </trkpt>
      <trkpt lat="48.95914" lon="1.09454">
        <ele>144.82</ele>
        <time>2011-10-16T13:21:50Z</time>
      </trkpt>
      <trkpt lat="48.95938" lon="1.09494">
        <ele>144.82</ele>
        <time>2011-10-16T13:22:04Z</time>
      </trkpt>
      <trkpt lat="48.95953" lon="1.09521">
        <ele>144.82</ele>
        <time>2011-10-16T13:22:14Z</time>
      </trkpt>
      <trkpt lat="48.95969" lon="1.0955">
        <ele>144.82</ele>
        <time>2011-10-16T13:22:24Z</time>
      </trkpt>
      <trkpt lat="48.95971" lon="1.09554">
        <ele>144.82</ele>
        <time>2011-10-16T13:22:25Z</time>
      </trkpt>
      <trkpt lat="48.95995" lon="1.09594">
        <ele>143.85</ele>
        <time>2011-10-16T13:22:37Z</time>
      </trkpt>
      <trkpt lat="48.96011" lon="1.09619">
        <ele>143.85</ele>
        <time>2011-10-16T13:22:45Z</time>
      </trkpt>
      <trkpt lat="48.9602" lon="1.09618">
        <ele>143.37</ele>
        <time>2011-10-16T13:22:49Z</time>
      </trkpt>
      <trkpt lat="48.9604" lon="1.09619">
        <ele>141.93</ele>
        <time>2011-10-16T13:22:54Z</time>
      </trkpt>
      <trkpt lat="48.96061" lon="1.09621">
        <ele>141.45</ele>
        <time>2011-10-16T13:22:59Z</time>
      </trkpt>
      <trkpt lat="48.96074" lon="1.09625">
        <ele>141.45</ele>
        <time>2011-10-16T13:23:02Z</time>
      </trkpt>
      <trkpt lat="48.96096" lon="1.0963">
        <ele>140.01</ele>
        <time>2011-10-16T13:23:08Z</time>
      </trkpt>
      <trkpt lat="48.96133" lon="1.09634">
        <ele>138.09</ele>
        <time>2011-10-16T13:23:17Z</time>
      </trkpt>
      <trkpt lat="48.96159" lon="1.09636">
        <ele>138.09</ele>
        <time>2011-10-16T13:23:23Z</time>
      </trkpt>
      <trkpt lat="48.96196" lon="1.09649">
        <ele>137.13</ele>
        <time>2011-10-16T13:23:32Z</time>
      </trkpt>
      <trkpt lat="48.9623" lon="1.09666">
        <ele>135.2</ele>
        <time>2011-10-16T13:23:41Z</time>
      </trkpt>
      <trkpt lat="48.96239" lon="1.0967">
        <ele>134.72</ele>
        <time>2011-10-16T13:23:43Z</time>
      </trkpt>
      <trkpt lat="48.96248" lon="1.09673">
        <ele>134.72</ele>
        <time>2011-10-16T13:23:45Z</time>
      </trkpt>
      <trkpt lat="48.96264" lon="1.09681">
        <ele>133.76</ele>
        <time>2011-10-16T13:23:49Z</time>
      </trkpt>
      <trkpt lat="48.96285" lon="1.09696">
        <ele>132.32</ele>
        <time>2011-10-16T13:23:53Z</time>
      </trkpt>
      <trkpt lat="48.96324" lon="1.09723">
        <ele>132.32</ele>
        <time>2011-10-16T13:24:03Z</time>
      </trkpt>
      <trkpt lat="48.9637" lon="1.09746">
        <ele>134.24</ele>
        <time>2011-10-16T13:24:18Z</time>
      </trkpt>
      <trkpt lat="48.96373" lon="1.09747">
        <ele>133.76</ele>
        <time>2011-10-16T13:24:19Z</time>
      </trkpt>
      <trkpt lat="48.96404" lon="1.09749">
        <ele>134.72</ele>
        <time>2011-10-16T13:24:31Z</time>
      </trkpt>
      <trkpt lat="48.96431" lon="1.0975">
        <ele>134.72</ele>
        <time>2011-10-16T13:24:40Z</time>
      </trkpt>
      <trkpt lat="48.96464" lon="1.09748">
        <ele>134.72</ele>
        <time>2011-10-16T13:24:51Z</time>
      </trkpt>
      <trkpt lat="48.96499" lon="1.09738">
        <ele>134.72</ele>
        <time>2011-10-16T13:25:01Z</time>
      </trkpt>
      <trkpt lat="48.96552" lon="1.0972">
        <ele>135.68</ele>
        <time>2011-10-16T13:25:16Z</time>
      </trkpt>
      <trkpt lat="48.96619" lon="1.09715">
        <ele>135.68</ele>
        <time>2011-10-16T13:25:34Z</time>
      </trkpt>
      <trkpt lat="48.9663" lon="1.09713">
        <ele>135.2</ele>
        <time>2011-10-16T13:25:37Z</time>
      </trkpt>
      <trkpt lat="48.96659" lon="1.09692">
        <ele>135.2</ele>
        <time>2011-10-16T13:25:45Z</time>
      </trkpt>
      <trkpt lat="48.96684" lon="1.0962">
        <ele>132.8</ele>
        <time>2011-10-16T13:25:55Z</time>
      </trkpt>
      <trkpt lat="48.96693" lon="1.09598">
        <ele>130.88</ele>
        <time>2011-10-16T13:25:58Z</time>
      </trkpt>
      <trkpt lat="48.96709" lon="1.09565">
        <ele>129.92</ele>
        <time>2011-10-16T13:26:04Z</time>
      </trkpt>
      <trkpt lat="48.9676" lon="1.09588">
        <ele>131.84</ele>
        <time>2011-10-16T13:26:18Z</time>
      </trkpt>
      <trkpt lat="48.9678" lon="1.09592">
        <ele>133.28</ele>
        <time>2011-10-16T13:26:23Z</time>
      </trkpt>
      <trkpt lat="48.96882" lon="1.09605">
        <ele>133.76</ele>
        <time>2011-10-16T13:26:46Z</time>
      </trkpt>
      <trkpt lat="48.96925" lon="1.0962">
        <ele>134.24</ele>
        <time>2011-10-16T13:26:57Z</time>
      </trkpt>
      <trkpt lat="48.96935" lon="1.09619">
        <ele>133.76</ele>
        <time>2011-10-16T13:27:02Z</time>
      </trkpt>
      <trkpt lat="48.96959" lon="1.09583">
        <ele>133.28</ele>
        <time>2011-10-16T13:27:09Z</time>
      </trkpt>
      <trkpt lat="48.96953" lon="1.09591">
        <ele>133.76</ele>
        <time>2011-10-16T13:27:15Z</time>
      </trkpt>
      <trkpt lat="48.96961" lon="1.09613">
        <ele>134.24</ele>
        <time>2011-10-16T13:27:19Z</time>
      </trkpt>
      <trkpt lat="48.96969" lon="1.09622">
        <ele>133.76</ele>
        <time>2011-10-16T13:27:21Z</time>
      </trkpt>
      <trkpt lat="48.96996" lon="1.09636">
        <ele>134.24</ele>
        <time>2011-10-16T13:27:27Z</time>
      </trkpt>
      <trkpt lat="48.97043" lon="1.09647">
        <ele>134.72</ele>
        <time>2011-10-16T13:27:37Z</time>
      </trkpt>
      <trkpt lat="48.97057" lon="1.09651">
        <ele>134.24</ele>
        <time>2011-10-16T13:27:40Z</time>
      </trkpt>
      <trkpt lat="48.97079" lon="1.09656">
        <ele>134.72</ele>
        <time>2011-10-16T13:27:46Z</time>
      </trkpt>
      <trkpt lat="48.9717" lon="1.09682">
        <ele>135.68</ele>
        <time>2011-10-16T13:28:06Z</time>
      </trkpt>
      <trkpt lat="48.97195" lon="1.09689">
        <ele>136.16</ele>
        <time>2011-10-16T13:28:12Z</time>
      </trkpt>
      <trkpt lat="48.97244" lon="1.09705">
        <ele>136.16</ele>
        <time>2011-10-16T13:28:23Z</time>
      </trkpt>
      <trkpt lat="48.97315" lon="1.09727">
        <ele>136.64</ele>
        <time>2011-10-16T13:28:39Z</time>
      </trkpt>
      <trkpt lat="48.9732" lon="1.09729">
        <ele>136.16</ele>
        <time>2011-10-16T13:28:40Z</time>
      </trkpt>
      <trkpt lat="48.97353" lon="1.09748">
        <ele>136.64</ele>
        <time>2011-10-16T13:28:47Z</time>
      </trkpt>
      <trkpt lat="48.97383" lon="1.09761">
        <ele>136.64</ele>
        <time>2011-10-16T13:28:53Z</time>
      </trkpt>
      <trkpt lat="48.97444" lon="1.09797">
        <ele>136.64</ele>
        <time>2011-10-16T13:29:06Z</time>
      </trkpt>
      <trkpt lat="48.97463" lon="1.09808">
        <ele>136.16</ele>
        <time>2011-10-16T13:29:10Z</time>
      </trkpt>
      <trkpt lat="48.97476" lon="1.09817">
        <ele>136.64</ele>
        <time>2011-10-16T13:29:13Z</time>
      </trkpt>
      <trkpt lat="48.97508" lon="1.09839">
        <ele>136.64</ele>
        <time>2011-10-16T13:29:20Z</time>
      </trkpt>
      <trkpt lat="48.9757" lon="1.09889">
        <ele>137.13</ele>
        <time>2011-10-16T13:29:34Z</time>
      </trkpt>
      <trkpt lat="48.97643" lon="1.09945">
        <ele>137.13</ele>
        <time>2011-10-16T13:29:50Z</time>
      </trkpt>
      <trkpt lat="48.97657" lon="1.09956">
        <ele>136.64</ele>
        <time>2011-10-16T13:29:53Z</time>
      </trkpt>
      <trkpt lat="48.97764" lon="1.10036">
        <ele>136.64</ele>
        <time>2011-10-16T13:30:16Z</time>
      </trkpt>
      <trkpt lat="48.97769" lon="1.10039">
        <ele>137.61</ele>
        <time>2011-10-16T13:30:17Z</time>
      </trkpt>
      <trkpt lat="48.97806" lon="1.1006">
        <ele>137.13</ele>
        <time>2011-10-16T13:30:25Z</time>
      </trkpt>
      <trkpt lat="48.97889" lon="1.10103">
        <ele>136.16</ele>
        <time>2011-10-16T13:30:43Z</time>
      </trkpt>
      <trkpt lat="48.97903" lon="1.10111">
        <ele>136.64</ele>
        <time>2011-10-16T13:30:46Z</time>
      </trkpt>
      <trkpt lat="48.9794" lon="1.10136">
        <ele>137.13</ele>
        <time>2011-10-16T13:30:55Z</time>
      </trkpt>
      <trkpt lat="48.97953" lon="1.10128">
        <ele>137.13</ele>
        <time>2011-10-16T13:30:59Z</time>
      </trkpt>
      <trkpt lat="48.97972" lon="1.10066">
        <ele>137.13</ele>
        <time>2011-10-16T13:31:09Z</time>
      </trkpt>
      <trkpt lat="48.97999" lon="1.09983">
        <ele>137.13</ele>
        <time>2011-10-16T13:31:24Z</time>
      </trkpt>
      <trkpt lat="48.98028" lon="1.09892">
        <ele>138.57</ele>
        <time>2011-10-16T13:31:42Z</time>
      </trkpt>
      <trkpt lat="48.9805" lon="1.09825">
        <ele>139.05</ele>
        <time>2011-10-16T13:31:56Z</time>
      </trkpt>
      <trkpt lat="48.98069" lon="1.09759">
        <ele>138.09</ele>
        <time>2011-10-16T13:32:11Z</time>
      </trkpt>
      <trkpt lat="48.98081" lon="1.0972">
        <ele>139.05</ele>
        <time>2011-10-16T13:32:22Z</time>
      </trkpt>
      <trkpt lat="48.98106" lon="1.09654">
        <ele>139.05</ele>
        <time>2011-10-16T13:32:40Z</time>
      </trkpt>
      <trkpt lat="48.98131" lon="1.09583">
        <ele>140.49</ele>
        <time>2011-10-16T13:33:00Z</time>
      </trkpt>
      <trkpt lat="48.98154" lon="1.09516">
        <ele>140.97</ele>
        <time>2011-10-16T13:33:18Z</time>
      </trkpt>
      <trkpt lat="48.9818" lon="1.09439">
        <ele>140.49</ele>
        <time>2011-10-16T13:33:37Z</time>
      </trkpt>
      <trkpt lat="48.98196" lon="1.09377">
        <ele>140.49</ele>
        <time>2011-10-16T13:33:51Z</time>
      </trkpt>
      <trkpt lat="48.98214" lon="1.09317">
        <ele>140.01</ele>
        <time>2011-10-16T13:34:04Z</time>
      </trkpt>
      <trkpt lat="48.98227" lon="1.09288">
        <ele>140.01</ele>
        <time>2011-10-16T13:34:11Z</time>
      </trkpt>
      <trkpt lat="48.98241" lon="1.09291">
        <ele>139.05</ele>
        <time>2011-10-16T13:34:15Z</time>
      </trkpt>
      <trkpt lat="48.98308" lon="1.09345">
        <ele>136.16</ele>
        <time>2011-10-16T13:34:29Z</time>
      </trkpt>
      <trkpt lat="48.98397" lon="1.09413">
        <ele>132.8</ele>
        <time>2011-10-16T13:34:44Z</time>
      </trkpt>
      <trkpt lat="48.98498" lon="1.09488">
        <ele>131.36</ele>
        <time>2011-10-16T13:35:00Z</time>
      </trkpt>
      <trkpt lat="48.98523" lon="1.09486">
        <ele>130.88</ele>
        <time>2011-10-16T13:35:04Z</time>
      </trkpt>
      <trkpt lat="48.98548" lon="1.09463">
        <ele>127.99</ele>
        <time>2011-10-16T13:35:08Z</time>
      </trkpt>
      <trkpt lat="48.98581" lon="1.09433">
        <ele>125.11</ele>
        <time>2011-10-16T13:35:13Z</time>
      </trkpt>
      <trkpt lat="48.98596" lon="1.09421">
        <ele>123.67</ele>
        <time>2011-10-16T13:35:15Z</time>
      </trkpt>
      <trkpt lat="48.98635" lon="1.09383">
        <ele>120.3</ele>
        <time>2011-10-16T13:35:21Z</time>
      </trkpt>
      <trkpt lat="48.9864" lon="1.09378">
        <ele>120.78</ele>
        <time>2011-10-16T13:35:22Z</time>
      </trkpt>
      <trkpt lat="48.98672" lon="1.0938">
        <ele>119.34</ele>
        <time>2011-10-16T13:35:29Z</time>
      </trkpt>
      <trkpt lat="48.98688" lon="1.0938">
        <ele>119.34</ele>
        <time>2011-10-16T13:35:33Z</time>
      </trkpt>
      <trkpt lat="48.98697" lon="1.09386">
        <ele>119.34</ele>
        <time>2011-10-16T13:35:35Z</time>
      </trkpt>
      <trkpt lat="48.98735" lon="1.09413">
        <ele>122.71</ele>
        <time>2011-10-16T13:35:46Z</time>
      </trkpt>
      <trkpt lat="48.98767" lon="1.09437">
        <ele>125.11</ele>
        <time>2011-10-16T13:35:58Z</time>
      </trkpt>
      <trkpt lat="48.98792" lon="1.09456">
        <ele>126.07</ele>
        <time>2011-10-16T13:36:10Z</time>
      </trkpt>
      <trkpt lat="48.9882" lon="1.09476">
        <ele>124.63</ele>
        <time>2011-10-16T13:36:20Z</time>
      </trkpt>
      <trkpt lat="48.9887" lon="1.09515">
        <ele>122.71</ele>
        <time>2011-10-16T13:36:34Z</time>
      </trkpt>
      <trkpt lat="48.98874" lon="1.09519">
        <ele>121.74</ele>
        <time>2011-10-16T13:36:35Z</time>
      </trkpt>
      <trkpt lat="48.9889" lon="1.09531">
        <ele>121.74</ele>
        <time>2011-10-16T13:36:39Z</time>
      </trkpt>
      <trkpt lat="48.98913" lon="1.0955">
        <ele>119.82</ele>
        <time>2011-10-16T13:36:44Z</time>
      </trkpt>
      <trkpt lat="48.98918" lon="1.09554">
        <ele>119.34</ele>
        <time>2011-10-16T13:36:45Z</time>
      </trkpt>
      <trkpt lat="48.98946" lon="1.09577">
        <ele>116.94</ele>
        <time>2011-10-16T13:36:50Z</time>
      </trkpt>
      <trkpt lat="48.98991" lon="1.09609">
        <ele>115.01</ele>
        <time>2011-10-16T13:36:57Z</time>
      </trkpt>
      <trkpt lat="48.99019" lon="1.0963">
        <ele>111.65</ele>
        <time>2011-10-16T13:37:02Z</time>
      </trkpt>
      <trkpt lat="48.9904" lon="1.09647">
        <ele>111.17</ele>
        <time>2011-10-16T13:37:06Z</time>
      </trkpt>
      <trkpt lat="48.99051" lon="1.09661">
        <ele>110.21</ele>
        <time>2011-10-16T13:37:09Z</time>
      </trkpt>
      <trkpt lat="48.99067" lon="1.09695">
        <ele>108.77</ele>
        <time>2011-10-16T13:37:14Z</time>
      </trkpt>
      <trkpt lat="48.99071" lon="1.09709">
        <ele>108.29</ele>
        <time>2011-10-16T13:37:16Z</time>
      </trkpt>
      <trkpt lat="48.99076" lon="1.09736">
        <ele>107.81</ele>
        <time>2011-10-16T13:37:20Z</time>
      </trkpt>
      <trkpt lat="48.99081" lon="1.09763">
        <ele>108.29</ele>
        <time>2011-10-16T13:37:24Z</time>
      </trkpt>
      <trkpt lat="48.9909" lon="1.09828">
        <ele>106.84</ele>
        <time>2011-10-16T13:37:35Z</time>
      </trkpt>
      <trkpt lat="48.99099" lon="1.09853">
        <ele>106.84</ele>
        <time>2011-10-16T13:37:40Z</time>
      </trkpt>
      <trkpt lat="48.99106" lon="1.09877">
        <ele>106.36</ele>
        <time>2011-10-16T13:37:45Z</time>
      </trkpt>
      <trkpt lat="48.99102" lon="1.09902">
        <ele>106.84</ele>
        <time>2011-10-16T13:37:53Z</time>
      </trkpt>
      <trkpt lat="48.99102" lon="1.09903">
        <ele>106.84</ele>
        <time>2011-10-16T13:37:54Z</time>
      </trkpt>
      <trkpt lat="48.99122" lon="1.09897">
        <ele>104.44</ele>
        <time>2011-10-16T13:38:00Z</time>
      </trkpt>
      <trkpt lat="48.99146" lon="1.09925">
        <ele>102.04</ele>
        <time>2011-10-16T13:38:06Z</time>
      </trkpt>
      <trkpt lat="48.99178" lon="1.09953">
        <ele>98.67</ele>
        <time>2011-10-16T13:38:12Z</time>
      </trkpt>
      <trkpt lat="48.99196" lon="1.09965">
        <ele>97.23</ele>
        <time>2011-10-16T13:38:15Z</time>
      </trkpt>
      <trkpt lat="48.9922" lon="1.0998">
        <ele>94.83</ele>
        <time>2011-10-16T13:38:19Z</time>
      </trkpt>
      <trkpt lat="48.99249" lon="1.09988">
        <ele>91.94</ele>
        <time>2011-10-16T13:38:23Z</time>
      </trkpt>
      <trkpt lat="48.99266" lon="1.09987">
        <ele>90.5</ele>
        <time>2011-10-16T13:38:25Z</time>
      </trkpt>
      <trkpt lat="48.99337" lon="1.0996">
        <ele>92.42</ele>
        <time>2011-10-16T13:38:33Z</time>
      </trkpt>
      <trkpt lat="48.99346" lon="1.09956">
        <ele>87.14</ele>
        <time>2011-10-16T13:38:34Z</time>
      </trkpt>
      <trkpt lat="48.99355" lon="1.09952">
        <ele>82.33</ele>
        <time>2011-10-16T13:38:35Z</time>
      </trkpt>
      <trkpt lat="48.99373" lon="1.09944">
        <ele>81.37</ele>
        <time>2011-10-16T13:38:37Z</time>
      </trkpt>
      <trkpt lat="48.99383" lon="1.0994">
        <ele>85.21</ele>
        <time>2011-10-16T13:38:38Z</time>
      </trkpt>
      <trkpt lat="48.99393" lon="1.09936">
        <ele>82.81</ele>
        <time>2011-10-16T13:38:39Z</time>
      </trkpt>
      <trkpt lat="48.99422" lon="1.09924">
        <ele>80.89</ele>
        <time>2011-10-16T13:38:42Z</time>
      </trkpt>
      <trkpt lat="48.99448" lon="1.09904">
        <ele>79.45</ele>
        <time>2011-10-16T13:38:45Z</time>
      </trkpt>
      <trkpt lat="48.99461" lon="1.09883">
        <ele>80.89</ele>
        <time>2011-10-16T13:38:47Z</time>
      </trkpt>
      <trkpt lat="48.99484" lon="1.09855">
        <ele>79.45</ele>
        <time>2011-10-16T13:38:51Z</time>
      </trkpt>
      <trkpt lat="48.99514" lon="1.09886">
        <ele>76.56</ele>
        <time>2011-10-16T13:38:55Z</time>
      </trkpt>
      <trkpt lat="48.99527" lon="1.09919">
        <ele>76.56</ele>
        <time>2011-10-16T13:38:58Z</time>
      </trkpt>
      <trkpt lat="48.99543" lon="1.09963">
        <ele>74.16</ele>
        <time>2011-10-16T13:39:02Z</time>
      </trkpt>
      <trkpt lat="48.99554" lon="1.10002">
        <ele>70.79</ele>
        <time>2011-10-16T13:39:05Z</time>
      </trkpt>
      <trkpt lat="48.99557" lon="1.10014">
        <ele>69.35</ele>
        <time>2011-10-16T13:39:06Z</time>
      </trkpt>
      <trkpt lat="48.99586" lon="1.10027">
        <ele>68.39</ele>
        <time>2011-10-16T13:39:11Z</time>
      </trkpt>
      <trkpt lat="48.99599" lon="1.10018">
        <ele>66.95</ele>
        <time>2011-10-16T13:39:13Z</time>
      </trkpt>
      <trkpt lat="48.99655" lon="1.0998">
        <ele>66.47</ele>
        <time>2011-10-16T13:39:22Z</time>
      </trkpt>
      <trkpt lat="48.99681" lon="1.09948">
        <ele>65.03</ele>
        <time>2011-10-16T13:39:27Z</time>
      </trkpt>
      <trkpt lat="48.9975" lon="1.09857">
        <ele>67.91</ele>
        <time>2011-10-16T13:39:41Z</time>
      </trkpt>
      <trkpt lat="48.99788" lon="1.09808">
        <ele>66.95</ele>
        <time>2011-10-16T13:39:49Z</time>
      </trkpt>
      <trkpt lat="48.99809" lon="1.0978">
        <ele>67.91</ele>
        <time>2011-10-16T13:39:54Z</time>
      </trkpt>
      <trkpt lat="48.99835" lon="1.09785">
        <ele>67.43</ele>
        <time>2011-10-16T13:40:00Z</time>
      </trkpt>
      <trkpt lat="48.999" lon="1.09973">
        <ele>66.95</ele>
        <time>2011-10-16T13:40:23Z</time>
      </trkpt>
      <trkpt lat="48.99916" lon="1.10021">
        <ele>68.87</ele>
        <time>2011-10-16T13:40:31Z</time>
      </trkpt>
      <trkpt lat="48.99934" lon="1.1008">
        <ele>67.91</ele>
        <time>2011-10-16T13:40:40Z</time>
      </trkpt>
      <trkpt lat="48.99938" lon="1.10103">
        <ele>68.39</ele>
        <time>2011-10-16T13:40:43Z</time>
      </trkpt>
      <trkpt lat="48.99954" lon="1.10114">
        <ele>70.31</ele>
        <time>2011-10-16T13:40:48Z</time>
      </trkpt>
      <trkpt lat="49.00016" lon="1.10068">
        <ele>69.35</ele>
        <time>2011-10-16T13:41:00Z</time>
      </trkpt>
      <trkpt lat="49.0011" lon="1.10017">
        <ele>68.87</ele>
        <time>2011-10-16T13:41:18Z</time>
      </trkpt>
      <trkpt lat="49.00225" lon="1.09905">
        <ele>69.83</ele>
        <time>2011-10-16T13:41:44Z</time>
      </trkpt>
      <trkpt lat="49.00255" lon="1.09876">
        <ele>69.83</ele>
        <time>2011-10-16T13:41:53Z</time>
      </trkpt>
      <trkpt lat="49.00249" lon="1.09851">
        <ele>69.35</ele>
        <time>2011-10-16T13:41:58Z</time>
      </trkpt>
      <trkpt lat="49.00175" lon="1.09734">
        <ele>70.31</ele>
        <time>2011-10-16T13:42:19Z</time>
      </trkpt>
      <trkpt lat="49.00165" lon="1.09687">
        <ele>73.2</ele>
        <time>2011-10-16T13:42:30Z</time>
      </trkpt>
      <trkpt lat="49.00163" lon="1.09664">
        <ele>76.08</ele>
        <time>2011-10-16T13:42:39Z</time>
      </trkpt>
      <trkpt lat="49.00165" lon="1.09657">
        <ele>77.04</ele>
        <time>2011-10-16T13:42:50Z</time>
      </trkpt>
      <trkpt lat="49.00163" lon="1.09636">
        <ele>80.89</ele>
        <time>2011-10-16T13:43:04Z</time>
      </trkpt>
      <trkpt lat="49.00156" lon="1.09619">
        <ele>82.33</ele>
        <time>2011-10-16T13:43:18Z</time>
      </trkpt>
      <trkpt lat="49.00159" lon="1.09601">
        <ele>85.21</ele>
        <time>2011-10-16T13:43:35Z</time>
      </trkpt>
      <trkpt lat="49.0016" lon="1.09597">
        <ele>85.69</ele>
        <time>2011-10-16T13:43:39Z</time>
      </trkpt>
      <trkpt lat="49.00162" lon="1.09577">
        <ele>88.58</ele>
        <time>2011-10-16T13:43:58Z</time>
      </trkpt>
      <trkpt lat="49.0016" lon="1.09555">
        <ele>90.98</ele>
        <time>2011-10-16T13:44:16Z</time>
      </trkpt>
      <trkpt lat="49.00159" lon="1.09539">
        <ele>93.87</ele>
        <time>2011-10-16T13:44:34Z</time>
      </trkpt>
      <trkpt lat="49.00158" lon="1.09518">
        <ele>95.31</ele>
        <time>2011-10-16T13:44:51Z</time>
      </trkpt>
      <trkpt lat="49.00158" lon="1.09495">
        <ele>98.67</ele>
        <time>2011-10-16T13:45:11Z</time>
      </trkpt>
      <trkpt lat="49.00159" lon="1.09477">
        <ele>101.56</ele>
        <time>2011-10-16T13:45:27Z</time>
      </trkpt>
      <trkpt lat="49.00155" lon="1.09453">
        <ele>104.44</ele>
        <time>2011-10-16T13:45:50Z</time>
      </trkpt>
      <trkpt lat="49.00153" lon="1.09439">
        <ele>106.84</ele>
        <time>2011-10-16T13:46:03Z</time>
      </trkpt>
      <trkpt lat="49.00153" lon="1.09418">
        <ele>109.73</ele>
        <time>2011-10-16T13:46:23Z</time>
      </trkpt>
      <trkpt lat="49.00152" lon="1.09402">
        <ele>112.13</ele>
        <time>2011-10-16T13:46:38Z</time>
      </trkpt>
      <trkpt lat="49.00154" lon="1.09376">
        <ele>114.05</ele>
        <time>2011-10-16T13:46:58Z</time>
      </trkpt>
      <trkpt lat="49.00153" lon="1.09359">
        <ele>116.94</ele>
        <time>2011-10-16T13:47:14Z</time>
      </trkpt>
      <trkpt lat="49.00155" lon="1.09336">
        <ele>118.86</ele>
        <time>2011-10-16T13:47:35Z</time>
      </trkpt>
      <trkpt lat="49.0015" lon="1.09313">
        <ele>119.82</ele>
        <time>2011-10-16T13:47:49Z</time>
      </trkpt>
      <trkpt lat="49.00143" lon="1.09286">
        <ele>118.38</ele>
        <time>2011-10-16T13:47:59Z</time>
      </trkpt>
      <trkpt lat="49.00131" lon="1.09236">
        <ele>119.82</ele>
        <time>2011-10-16T13:48:09Z</time>
      </trkpt>
      <trkpt lat="49.00139" lon="1.09203">
        <ele>120.78</ele>
        <time>2011-10-16T13:48:16Z</time>
      </trkpt>
      <trkpt lat="49.00184" lon="1.09149">
        <ele>118.86</ele>
        <time>2011-10-16T13:48:30Z</time>
      </trkpt>
      <trkpt lat="49.00232" lon="1.09135">
        <ele>118.38</ele>
        <time>2011-10-16T13:48:40Z</time>
      </trkpt>
      <trkpt lat="49.00245" lon="1.09122">
        <ele>117.9</ele>
        <time>2011-10-16T13:48:44Z</time>
      </trkpt>
      <trkpt lat="49.0025" lon="1.0911">
        <ele>118.38</ele>
        <time>2011-10-16T13:48:46Z</time>
      </trkpt>
      <trkpt lat="49.00252" lon="1.09082">
        <ele>117.9</ele>
        <time>2011-10-16T13:48:51Z</time>
      </trkpt>
      <trkpt lat="49.00229" lon="1.09048">
        <ele>117.42</ele>
        <time>2011-10-16T13:48:58Z</time>
      </trkpt>
      <trkpt lat="49.00206" lon="1.08968">
        <ele>118.86</ele>
        <time>2011-10-16T13:49:14Z</time>
      </trkpt>
      <trkpt lat="49.00206" lon="1.08959">
        <ele>118.86</ele>
        <time>2011-10-16T13:49:16Z</time>
      </trkpt>
      <trkpt lat="49.00238" lon="1.08946">
        <ele>118.38</ele>
        <time>2011-10-16T13:49:26Z</time>
      </trkpt>
      <trkpt lat="49.00246" lon="1.08936">
        <ele>118.86</ele>
        <time>2011-10-16T13:49:30Z</time>
      </trkpt>
      <trkpt lat="49.00245" lon="1.08921">
        <ele>119.34</ele>
        <time>2011-10-16T13:49:35Z</time>
      </trkpt>
      <trkpt lat="49.00246" lon="1.08914">
        <ele>119.34</ele>
        <time>2011-10-16T13:49:55Z</time>
      </trkpt>
      <trkpt lat="49.00246" lon="1.08914">
        <ele>118.86</ele>
        <time>2011-10-16T13:50:06Z</time>
      </trkpt>
    </trkseg>
  </trk>
</gpx>